Wetterdaten: Donnerstag, 09.01.2020
Datum Zeit Temp. Aussen Temp. o. S. Temp +5cm Feuchte Auss Luftdruck Regen Sonnenschein Regendauer Solar Windben Empfang
09.01.2020 00:00 10,5 C 9,4 C 8,9 C 100 % 1022,8 hPa 0,0 l/m 0 min 2 min 0 W/m 0,0 km/h (0 Bft) 91,49 %
09.01.2020 00:02 10,5 C 9,4 C 8,9 C 100 % 1022,9 hPa 0,0 l/m 0 min 2 min 0 W/m 0,0 km/h (0 Bft) 92,50 %
09.01.2020 00:04 10,5 C 9,4 C 8,9 C 100 % 1022,9 hPa 0,2 l/m 0 min 2 min 0 W/m 0,0 km/h (0 Bft) 97,83 %
09.01.2020 00:08 10,5 C 9,4 C 8,9 C 100 % 1022,8 hPa 0,0 l/m 0 min 4 min 0 W/m 0,0 km/h (0 Bft) 96,81 %
09.01.2020 00:10 10,5 C 9,4 C 8,9 C 100 % 1022,8 hPa 0,0 l/m 0 min 2 min 0 W/m 0,0 km/h (0 Bft) 95,74 %
09.01.2020 00:12 10,5 C 9,4 C 8,9 C 100 % 1022,8 hPa 0,0 l/m 0 min 2 min 0 W/m 0,0 km/h (0 Bft) 97,87 %
09.01.2020 00:14 10,5 C 9,4 C 8,9 C 100 % 1022,8 hPa 0,0 l/m 0 min 2 min 0 W/m 0,0 km/h (0 Bft) 97,83 %
09.01.2020 00:16 10,5 C 9,4 C 8,9 C 100 % 1022,7 hPa 0,2 l/m 0 min 2 min 0 W/m 0,0 km/h (0 Bft) 98,11 %
09.01.2020 00:18 10,5 C 9,4 C 8,9 C 100 % 1022,7 hPa 0,0 l/m 0 min 2 min 0 W/m 0,0 km/h (0 Bft) 95,12 %
09.01.2020 00:20 10,5 C 9,4 C 8,9 C 100 % 1022,7 hPa 0,0 l/m 0 min 2 min 0 W/m 0,0 km/h (0 Bft) 97,87 %
09.01.2020 00:22 10,5 C 9,4 C 8,9 C 100 % 1022,8 hPa 0,0 l/m 0 min 2 min 0 W/m 0,0 km/h (0 Bft) 95,74 %
09.01.2020 00:24 10,5 C 9,4 C 8,9 C 100 % 1022,7 hPa 0,0 l/m 0 min 2 min 0 W/m 0,0 km/h (0 Bft) 97,87 %
09.01.2020 00:26 10,5 C 9,4 C 8,9 C 100 % 1022,7 hPa 0,2 l/m 0 min 2 min 0 W/m 0,0 km/h (0 Bft) 97,83 %
09.01.2020 00:28 10,5 C 9,4 C 8,9 C 100 % 1022,7 hPa 0,0 l/m 0 min 2 min 0 W/m 0,0 km/h (0 Bft) 97,87 %
09.01.2020 00:30 10,5 C 9,4 C 8,9 C 100 % 1022,7 hPa 0,0 l/m 0 min 2 min 0 W/m 0,0 km/h (0 Bft) 97,87 %
09.01.2020 00:32 10,5 C 9,4 C 8,9 C 100 % 1022,7 hPa 0,0 l/m 0 min 2 min 0 W/m 3,2 km/h (1 Bft) 95,74 %
09.01.2020 00:34 10,5 C 9,4 C 8,9 C 100 % 1022,6 hPa 0,0 l/m 0 min 2 min 0 W/m 0,0 km/h (0 Bft) 97,87 %
09.01.2020 00:36 10,5 C 9,4 C 8,9 C 100 % 1022,6 hPa 0,0 l/m 0 min 2 min 0 W/m 0,0 km/h (0 Bft) 93,62 %
09.01.2020 00:38 10,5 C 9,4 C 8,9 C 100 % 1022,5 hPa 0,2 l/m 0 min 2 min 0 W/m 0,0 km/h (0 Bft) 95,65 %
09.01.2020 00:40 10,5 C 9,4 C 8,9 C 100 % 1022,5 hPa 0,0 l/m 0 min 2 min 0 W/m 0,0 km/h (0 Bft) 97,87 %
09.01.2020 00:42 10,5 C 9,4 C 8,9 C 100 % 1022,5 hPa 0,0 l/m 0 min 2 min 0 W/m 0,0 km/h (0 Bft) 97,87 %
09.01.2020 00:44 10,5 C 9,4 C 9,4 C 100 % 1022,5 hPa 0,0 l/m 0 min 2 min 0 W/m 0,0 km/h (0 Bft) 97,87 %
09.01.2020 00:46 10,5 C 9,4 C 9,4 C 100 % 1022,5 hPa 0,0 l/m 0 min 2 min 0 W/m 0,0 km/h (0 Bft) 95,74 %
09.01.2020 00:48 10,5 C 9,4 C 9,4 C 100 % 1022,4 hPa 0,2 l/m 0 min 2 min 0 W/m 0,0 km/h (0 Bft) 95,74 %
09.01.2020 00:50 10,5 C 9,4 C 9,4 C 100 % 1022,4 hPa 0,0 l/m 0 min 2 min 0 W/m 0,0 km/h (0 Bft) 97,83 %
09.01.2020 00:52 10,5 C 9,4 C 9,4 C 100 % 1022,3 hPa 0,0 l/m 0 min 2 min 0 W/m 0,0 km/h (0 Bft) 97,87 %
09.01.2020 00:54 10,5 C 9,4 C 8,9 C 100 % 1022,2 hPa 0,0 l/m 0 min 2 min 0 W/m 0,0 km/h (0 Bft) 97,87 %
09.01.2020 00:56 10,5 C 9,4 C 8,9 C 100 % 1022,2 hPa 0,0 l/m 0 min 2 min 0 W/m 0,0 km/h (0 Bft) 97,87 %
09.01.2020 00:58 10,5 C 9,4 C 8,9 C 100 % 1022,1 hPa 0,0 l/m 0 min 2 min 0 W/m 0,0 km/h (0 Bft) 100,00 %
09.01.2020 01:00 10,5 C 9,4 C 8,9 C 100 % 1022,0 hPa 0,0 l/m 0 min 2 min 0 W/m 0,0 km/h (0 Bft) 100,00 %
09.01.2020 01:02 10,5 C 9,4 C 8,9 C 100 % 1022,0 hPa 0,2 l/m 0 min 2 min 0 W/m 0,0 km/h (0 Bft) 100,00 %
09.01.2020 01:04 10,5 C 9,4 C 8,9 C 100 % 1022,0 hPa 0,0 l/m 0 min 2 min 0 W/m 0,0 km/h (0 Bft) 100,00 %
09.01.2020 01:06 10,5 C 9,4 C 8,9 C 100 % 1022,0 hPa 0,0 l/m 0 min 2 min 0 W/m 0,0 km/h (0 Bft) 95,74 %
09.01.2020 01:08 10,5 C 9,4 C 8,9 C 100 % 1022,0 hPa 0,0 l/m 0 min 2 min 0 W/m 0,0 km/h (0 Bft) 100,00 %
09.01.2020 01:10 10,5 C 9,4 C 8,9 C 100 % 1022,0 hPa 0,0 l/m 0 min 2 min 0 W/m 0,0 km/h (0 Bft) 100,00 %
09.01.2020 01:12 10,5 C 9,4 C 8,9 C 100 % 1021,9 hPa 0,0 l/m 0 min 2 min 0 W/m 6,4 km/h (2 Bft) 95,74 %
09.01.2020 01:14 10,5 C 9,4 C 8,9 C 100 % 1022,0 hPa 0,0 l/m 0 min 2 min 0 W/m 12,9 km/h (3 Bft) 97,83 %
09.01.2020 01:16 10,5 C 9,4 C 8,9 C 100 % 1022,0 hPa 0,0 l/m 0 min 2 min 0 W/m 12,9 km/h (3 Bft) 97,87 %
09.01.2020 01:18 10,5 C 9,4 C 8,9 C 100 % 1021,9 hPa 0,0 l/m 0 min 0 min 0 W/m 12,9 km/h (3 Bft) 100,00 %
09.01.2020 01:20 10,5 C 9,4 C 8,9 C 100 % 1021,9 hPa 0,0 l/m 0 min 0 min 0 W/m 6,4 km/h (2 Bft) 100,00 %
09.01.2020 01:22 10,4 C 9,4 C 8,9 C 100 % 1021,9 hPa 0,0 l/m 0 min 2 min 0 W/m 3,2 km/h (1 Bft) 95,74 %
09.01.2020 01:24 10,4 C 9,4 C 8,9 C 100 % 1021,8 hPa 0,0 l/m 0 min 2 min 0 W/m 6,4 km/h (2 Bft) 97,83 %
09.01.2020 01:26 10,5 C 9,4 C 8,9 C 100 % 1021,7 hPa 0,0 l/m 0 min 2 min 0 W/m 3,2 km/h (1 Bft) 95,74 %
09.01.2020 01:28 10,4 C 9,4 C 8,9 C 100 % 1021,6 hPa 0,0 l/m 0 min 2 min 0 W/m 6,4 km/h (2 Bft) 97,87 %
09.01.2020 01:30 10,4 C 9,4 C 8,9 C 100 % 1021,5 hPa 0,0 l/m 0 min 2 min 0 W/m 6,4 km/h (2 Bft) 97,87 %
09.01.2020 01:32 10,4 C 9,4 C 8,9 C 100 % 1021,5 hPa 0,0 l/m 0 min 0 min 0 W/m 6,4 km/h (2 Bft) 100,00 %
09.01.2020 01:34 10,4 C 9,4 C 8,9 C 100 % 1021,5 hPa 0,0 l/m 0 min 2 min 0 W/m 0,0 km/h (0 Bft) 93,62 %
09.01.2020 01:36 10,4 C 9,4 C 8,9 C 100 % 1021,4 hPa 0,0 l/m 0 min 0 min 0 W/m 3,2 km/h (1 Bft) 93,48 %
09.01.2020 01:38 10,4 C 9,4 C 8,9 C 100 % 1021,3 hPa 0,0 l/m 0 min 0 min 0 W/m 12,9 km/h (3 Bft) 97,87 %
09.01.2020 01:40 10,4 C 9,4 C 8,9 C 100 % 1021,3 hPa 0,0 l/m 0 min 0 min 0 W/m 0,0 km/h (0 Bft) 95,74 %
09.01.2020 01:42 10,4 C 9,4 C 8,9 C 100 % 1021,3 hPa 0,0 l/m 0 min 0 min 0 W/m 0,0 km/h (0 Bft) 91,49 %
09.01.2020 01:44 10,4 C 9,4 C 8,9 C 100 % 1021,2 hPa 0,0 l/m 0 min 2 min 0 W/m 0,0 km/h (0 Bft) 91,49 %
09.01.2020 01:46 10,4 C 9,4 C 8,9 C 100 % 1021,1 hPa 0,0 l/m 0 min 2 min 0 W/m 3,2 km/h (1 Bft) 95,74 %
09.01.2020 01:48 10,4 C 9,4 C 8,9 C 100 % 1021,1 hPa 0,0 l/m 0 min 0 min 0 W/m 12,9 km/h (3 Bft) 93,48 %
09.01.2020 01:50 10,4 C 9,4 C 8,9 C 100 % 1021,1 hPa 0,0 l/m 0 min 0 min 0 W/m 6,4 km/h (2 Bft) 93,62 %
09.01.2020 01:52 10,4 C 9,4 C 8,9 C 100 % 1021,1 hPa 0,0 l/m 0 min 0 min 0 W/m 3,2 km/h (1 Bft) 91,49 %
09.01.2020 01:54 10,4 C 9,4 C 8,9 C 100 % 1021,1 hPa 0,0 l/m 0 min 0 min 0 W/m 0,0 km/h (0 Bft) 95,74 %
09.01.2020 01:56 10,4 C 9,4 C 8,9 C 100 % 1021,1 hPa 0,0 l/m 0 min 0 min 0 W/m 12,9 km/h (3 Bft) 93,62 %
09.01.2020 01:58 10,4 C 9,4 C 8,9 C 100 % 1021,1 hPa 0,0 l/m 0 min 0 min 0 W/m 6,4 km/h (2 Bft) 93,62 %
09.01.2020 02:00 10,4 C 9,4 C 8,9 C 100 % 1021,1 hPa 0,0 l/m 0 min 0 min 0 W/m 6,4 km/h (2 Bft) 91,30 %
09.01.2020 02:02 10,4 C 9,4 C 8,9 C 100 % 1021,1 hPa 0,0 l/m 0 min 0 min 0 W/m 3,2 km/h (1 Bft) 91,49 %
09.01.2020 02:04 10,4 C 9,4 C 8,9 C 100 % 1021,1 hPa 0,0 l/m 0 min 0 min 0 W/m 12,9 km/h (3 Bft) 95,74 %
09.01.2020 02:06 10,4 C 9,4 C 8,9 C 100 % 1021,1 hPa 0,0 l/m 0 min 0 min 0 W/m 3,2 km/h (1 Bft) 93,62 %
09.01.2020 02:08 10,4 C 9,4 C 8,9 C 100 % 1021,1 hPa 0,0 l/m 0 min 0 min 0 W/m 3,2 km/h (1 Bft) 93,62 %
09.01.2020 02:10 10,4 C 9,4 C 8,9 C 100 % 1021,0 hPa 0,0 l/m 0 min 0 min 0 W/m 6,4 km/h (2 Bft) 95,74 %
09.01.2020 02:12 10,4 C 9,4 C 8,9 C 100 % 1021,0 hPa 0,0 l/m 0 min 0 min 0 W/m 12,9 km/h (3 Bft) 93,48 %
09.01.2020 02:14 10,4 C 9,4 C 8,9 C 100 % 1020,9 hPa 0,0 l/m 0 min 0 min 0 W/m 3,2 km/h (1 Bft) 95,74 %
09.01.2020 02:16 10,4 C 9,4 C 8,9 C 100 % 1021,0 hPa 0,0 l/m 0 min 0 min 0 W/m 3,2 km/h (1 Bft) 95,74 %
09.01.2020 02:18 10,4 C 9,4 C 8,9 C 100 % 1020,9 hPa 0,0 l/m 0 min 0 min 0 W/m 3,2 km/h (1 Bft) 93,62 %
09.01.2020 02:20 10,4 C 9,4 C 8,9 C 100 % 1020,9 hPa 0,0 l/m 0 min 0 min 0 W/m 6,4 km/h (2 Bft) 95,74 %
09.01.2020 02:22 10,4 C 9,4 C 8,9 C 100 % 1020,9 hPa 0,0 l/m 0 min 0 min 0 W/m 3,2 km/h (1 Bft) 95,65 %
09.01.2020 02:24 10,4 C 9,4 C 8,9 C 100 % 1020,9 hPa 0,0 l/m 0 min 0 min 0 W/m 12,9 km/h (3 Bft) 97,87 %
09.01.2020 02:26 10,4 C 9,4 C 8,9 C 100 % 1020,9 hPa 0,0 l/m 0 min 0 min 0 W/m 3,2 km/h (1 Bft) 97,87 %
09.01.2020 02:28 10,3 C 9,4 C 8,9 C 100 % 1020,8 hPa 0,0 l/m 0 min 0 min 0 W/m 6,4 km/h (2 Bft) 95,74 %
09.01.2020 02:30 10,3 C 9,4 C 8,9 C 100 % 1020,7 hPa 0,0 l/m 0 min 0 min 0 W/m 12,9 km/h (3 Bft) 97,87 %
09.01.2020 02:32 10,3 C 9,4 C 8,9 C 100 % 1020,7 hPa 0,0 l/m 0 min 0 min 0 W/m 6,4 km/h (2 Bft) 97,87 %
09.01.2020 02:34 10,3 C 9,4 C 8,9 C 100 % 1020,7 hPa 0,0 l/m 0 min 0 min 0 W/m 6,4 km/h (2 Bft) 93,62 %
09.01.2020 02:36 10,3 C 9,4 C 8,9 C 100 % 1020,7 hPa 0,0 l/m 0 min 0 min 0 W/m 6,4 km/h (2 Bft) 100,00 %
09.01.2020 02:38 10,3 C 9,4 C 8,9 C 100 % 1020,7 hPa 0,0 l/m 0 min 0 min 0 W/m 12,9 km/h (3 Bft) 97,87 %
09.01.2020 02:40 10,2 C 9,4 C 8,9 C 100 % 1020,7 hPa 0,0 l/m 0 min 2 min 0 W/m 12,9 km/h (3 Bft) 100,00 %
09.01.2020 02:42 10,2 C 9,4 C 8,9 C 100 % 1020,7 hPa 0,0 l/m 0 min 0 min 0 W/m 12,9 km/h (3 Bft) 97,87 %
09.01.2020 02:44 10,2 C 9,4 C 8,9 C 100 % 1020,7 hPa 0,0 l/m 0 min 0 min 0 W/m 12,9 km/h (3 Bft) 97,87 %
09.01.2020 02:46 10,2 C 9,4 C 8,9 C 100 % 1020,7 hPa 0,0 l/m 0 min 0 min 0 W/m 12,9 km/h (3 Bft) 97,78 %
09.01.2020 02:48 10,2 C 9,4 C 8,9 C 100 % 1020,7 hPa 0,0 l/m 0 min 0 min 0 W/m 0,0 km/h (0 Bft) 97,87 %
09.01.2020 02:50 10,2 C 9,4 C 8,9 C 100 % 1020,6 hPa 0,0 l/m 0 min 0 min 0 W/m 12,9 km/h (3 Bft) 97,87 %
09.01.2020 02:52 10,2 C 9,4 C 8,9 C 100 % 1020,6 hPa 0,0 l/m 0 min 0 min 0 W/m 12,9 km/h (3 Bft) 97,87 %
09.01.2020 02:54 10,1 C 9,4 C 8,9 C 100 % 1020,5 hPa 0,0 l/m 0 min 0 min 0 W/m 6,4 km/h (2 Bft) 95,74 %
09.01.2020 02:56 10,1 C 9,4 C 8,9 C 100 % 1020,5 hPa 0,0 l/m 0 min 0 min 0 W/m 16,1 km/h (3 Bft) 97,87 %
09.01.2020 02:58 10,1 C 9,4 C 8,9 C 100 % 1020,4 hPa 0,0 l/m 0 min 0 min 0 W/m 12,9 km/h (3 Bft) 100,00 %
09.01.2020 03:00 10,1 C 9,4 C 8,9 C 100 % 1020,4 hPa 0,0 l/m 0 min 0 min 0 W/m 6,4 km/h (2 Bft) 100,00 %
09.01.2020 03:02 10,1 C 9,4 C 8,9 C 100 % 1020,4 hPa 0,0 l/m 0 min 0 min 0 W/m 12,9 km/h (3 Bft) 100,00 %
09.01.2020 03:04 10,1 C 9,4 C 8,9 C 100 % 1020,4 hPa 0,0 l/m 0 min 0 min 0 W/m 16,1 km/h (3 Bft) 97,87 %
09.01.2020 03:06 10,1 C 9,4 C 8,9 C 100 % 1020,4 hPa 0,0 l/m 0 min 0 min 0 W/m 16,1 km/h (3 Bft) 97,87 %
09.01.2020 03:08 10,1 C 9,4 C 8,9 C 100 % 1020,3 hPa 0,0 l/m 0 min 0 min 0 W/m 6,4 km/h (2 Bft) 97,87 %
09.01.2020 03:10 10,1 C 9,4 C 8,9 C 100 % 1020,3 hPa 0,0 l/m 0 min 0 min 0 W/m 6,4 km/h (2 Bft) 95,65 %
09.01.2020 03:12 10,1 C 9,4 C 8,9 C 100 % 1020,2 hPa 0,0 l/m 0 min 0 min 0 W/m 6,4 km/h (2 Bft) 97,87 %
09.01.2020 03:14 10,1 C 9,4 C 8,9 C 100 % 1020,0 hPa 0,0 l/m 0 min 0 min 0 W/m 6,4 km/h (2 Bft) 97,87 %
09.01.2020 03:16 10,1 C 8,9 C 8,9 C 100 % 1020,0 hPa 0,0 l/m 0 min 0 min 0 W/m 19,3 km/h (3 Bft) 97,87 %
09.01.2020 03:18 10,1 C 8,9 C 8,9 C 100 % 1019,9 hPa 0,0 l/m 0 min 0 min 0 W/m 19,3 km/h (3 Bft) 97,87 %
09.01.2020 03:20 10,1 C 8,9 C 8,9 C 100 % 1019,8 hPa 0,0 l/m 0 min 0 min 0 W/m 22,5 km/h (4 Bft) 93,62 %
09.01.2020 03:22 10,1 C 8,9 C 8,9 C 100 % 1019,8 hPa 0,0 l/m 0 min 0 min 0 W/m 12,9 km/h (3 Bft) 93,48 %
09.01.2020 03:24 10,0 C 8,9 C 8,9 C 100 % 1019,7 hPa 0,0 l/m 0 min 0 min 0 W/m 12,9 km/h (3 Bft) 95,74 %
09.01.2020 03:26 10,0 C 8,9 C 8,3 C 100 % 1019,7 hPa 0,0 l/m 0 min 0 min 0 W/m 6,4 km/h (2 Bft) 97,87 %
09.01.2020 03:28 10,0 C 8,9 C 8,3 C 100 % 1019,8 hPa 0,0 l/m 0 min 0 min 0 W/m 12,9 km/h (3 Bft) 97,87 %
09.01.2020 03:30 9,9 C 8,9 C 8,3 C 100 % 1019,7 hPa 0,0 l/m 0 min 0 min 0 W/m 3,2 km/h (1 Bft) 97,87 %
09.01.2020 03:32 9,9 C 8,9 C 8,3 C 100 % 1019,6 hPa 0,0 l/m 0 min 0 min 0 W/m 6,4 km/h (2 Bft) 97,83 %
09.01.2020 03:34 9,9 C 8,9 C 8,3 C 100 % 1019,6 hPa 0,0 l/m 0 min 0 min 0 W/m 12,9 km/h (3 Bft) 97,87 %
09.01.2020 03:36 9,9 C 8,9 C 8,3 C 100 % 1019,6 hPa 0,0 l/m 0 min 2 min 0 W/m 16,1 km/h (3 Bft) 95,74 %
09.01.2020 03:38 9,9 C 8,9 C 8,3 C 100 % 1019,6 hPa 0,0 l/m 0 min 2 min 0 W/m 6,4 km/h (2 Bft) 93,62 %
09.01.2020 03:40 9,9 C 8,9 C 8,3 C 100 % 1019,6 hPa 0,0 l/m 0 min 2 min 0 W/m 9,7 km/h (2 Bft) 97,87 %
09.01.2020 03:42 9,8 C 8,9 C 8,3 C 100 % 1019,6 hPa 0,0 l/m 0 min 0 min 0 W/m 12,9 km/h (3 Bft) 97,87 %
09.01.2020 03:44 9,8 C 8,9 C 8,3 C 100 % 1019,6 hPa 0,0 l/m 0 min 2 min 0 W/m 12,9 km/h (3 Bft) 97,83 %
09.01.2020 03:46 9,8 C 8,9 C 8,3 C 100 % 1019,5 hPa 0,0 l/m 0 min 2 min 0 W/m 12,9 km/h (3 Bft) 97,87 %
09.01.2020 03:48 9,8 C 8,9 C 8,3 C 100 % 1019,4 hPa 0,0 l/m 0 min 0 min 0 W/m 12,9 km/h (3 Bft) 97,87 %
09.01.2020 03:50 9,8 C 8,9 C 8,3 C 100 % 1019,4 hPa 0,0 l/m 0 min 0 min 0 W/m 6,4 km/h (2 Bft) 95,74 %
09.01.2020 03:52 9,8 C 8,9 C 8,3 C 100 % 1019,4 hPa 0,0 l/m 0 min 0 min 0 W/m 6,4 km/h (2 Bft) 95,74 %
09.01.2020 03:54 9,8 C 8,9 C 8,3 C 100 % 1019,3 hPa 0,0 l/m 0 min 0 min 0 W/m 6,4 km/h (2 Bft) 95,74 %
09.01.2020 03:56 9,8 C 8,9 C 8,3 C 100 % 1019,3 hPa 0,0 l/m 0 min 2 min 0 W/m 12,9 km/h (3 Bft) 100,00 %
09.01.2020 03:58 9,8 C 8,9 C 8,3 C 100 % 1019,3 hPa 0,0 l/m 0 min 2 min 0 W/m 6,4 km/h (2 Bft) 97,87 %
09.01.2020 04:00 9,8 C 8,9 C 8,3 C 100 % 1019,3 hPa 0,0 l/m 0 min 2 min 0 W/m 6,4 km/h (2 Bft) 97,87 %
09.01.2020 04:02 9,8 C 8,9 C 8,3 C 100 % 1019,3 hPa 0,0 l/m 0 min 0 min 0 W/m 12,9 km/h (3 Bft) 95,83 %
09.01.2020 04:04 9,7 C 8,9 C 8,3 C 100 % 1019,2 hPa 0,0 l/m 0 min 0 min 0 W/m 0,0 km/h (0 Bft) 100,00 %
09.01.2020 04:06 9,7 C 8,9 C 8,3 C 100 % 1019,3 hPa 0,0 l/m 0 min 0 min 0 W/m 6,4 km/h (2 Bft) 95,74 %
09.01.2020 04:08 9,7 C 8,9 C 8,3 C 100 % 1019,2 hPa 0,0 l/m 0 min 0 min 0 W/m 6,4 km/h (2 Bft) 95,74 %
09.01.2020 04:10 9,7 C 8,9 C 8,3 C 100 % 1019,2 hPa 0,0 l/m 0 min 0 min 0 W/m 16,1 km/h (3 Bft) 95,74 %
09.01.2020 04:12 9,7 C 8,9 C 8,3 C 100 % 1019,2 hPa 0,0 l/m 0 min 0 min 0 W/m 12,9 km/h (3 Bft) 93,48 %
09.01.2020 04:14 9,7 C 8,9 C 8,3 C 100 % 1019,1 hPa 0,0 l/m 0 min 0 min 0 W/m 6,4 km/h (2 Bft) 97,87 %
09.01.2020 04:16 9,7 C 8,9 C 8,3 C 100 % 1019,1 hPa 0,0 l/m 0 min 0 min 0 W/m 6,4 km/h (2 Bft) 95,74 %
09.01.2020 04:18 9,7 C 8,9 C 8,3 C 100 % 1019,1 hPa 0,0 l/m 0 min 0 min 0 W/m 9,7 km/h (2 Bft) 97,87 %
09.01.2020 04:20 9,7 C 8,9 C 8,3 C 100 % 1019,0 hPa 0,0 l/m 0 min 2 min 0 W/m 12,9 km/h (3 Bft) 93,62 %
09.01.2020 04:22 9,7 C 8,9 C 8,3 C 100 % 1019,0 hPa 0,0 l/m 0 min 2 min 0 W/m 6,4 km/h (2 Bft) 97,83 %
09.01.2020 04:24 9,7 C 8,9 C 8,3 C 100 % 1019,0 hPa 0,0 l/m 0 min 2 min 0 W/m 12,9 km/h (3 Bft) 97,87 %
09.01.2020 04:26 9,7 C 8,9 C 8,3 C 100 % 1018,9 hPa 0,0 l/m 0 min 2 min 0 W/m 16,1 km/h (3 Bft) 95,74 %
09.01.2020 04:28 9,7 C 8,9 C 8,3 C 100 % 1018,8 hPa 0,0 l/m 0 min 0 min 0 W/m 16,1 km/h (3 Bft) 97,87 %
09.01.2020 04:30 9,6 C 8,9 C 8,3 C 100 % 1018,7 hPa 0,0 l/m 0 min 2 min 0 W/m 16,1 km/h (3 Bft) 93,62 %
09.01.2020 04:32 9,6 C 8,9 C 8,3 C 100 % 1018,6 hPa 0,0 l/m 0 min 2 min 0 W/m 19,3 km/h (3 Bft) 97,87 %
09.01.2020 04:34 9,6 C 8,9 C 8,3 C 100 % 1018,6 hPa 0,2 l/m 0 min 2 min 0 W/m 12,9 km/h (3 Bft) 97,83 %
09.01.2020 04:36 9,6 C 8,9 C 8,3 C 100 % 1018,6 hPa 0,0 l/m 0 min 2 min 0 W/m 12,9 km/h (3 Bft) 95,74 %
09.01.2020 04:38 9,6 C 8,9 C 8,3 C 100 % 1018,6 hPa 0,0 l/m 0 min 2 min 0 W/m 12,9 km/h (3 Bft) 97,87 %
09.01.2020 04:40 9,6 C 8,9 C 8,3 C 100 % 1018,5 hPa 0,0 l/m 0 min 2 min 0 W/m 12,9 km/h (3 Bft) 95,74 %
09.01.2020 04:42 9,6 C 8,9 C 8,3 C 100 % 1018,6 hPa 0,0 l/m 0 min 2 min 0 W/m 6,4 km/h (2 Bft) 95,74 %
09.01.2020 04:44 9,6 C 8,9 C 8,3 C 100 % 1018,4 hPa 0,2 l/m 0 min 2 min 0 W/m 12,9 km/h (3 Bft) 97,87 %
09.01.2020 04:46 9,6 C 8,9 C 8,3 C 100 % 1018,3 hPa 0,0 l/m 0 min 2 min 0 W/m 19,3 km/h (3 Bft) 97,83 %
09.01.2020 04:48 9,6 C 8,3 C 8,3 C 100 % 1018,3 hPa 0,0 l/m 0 min 0 min 0 W/m 12,9 km/h (3 Bft) 96,00 %
09.01.2020 04:50 9,6 C 8,3 C 8,3 C 100 % 1018,2 hPa 0,0 l/m 0 min 0 min 0 W/m 16,1 km/h (3 Bft) 100,00 %
09.01.2020 04:52 9,6 C 8,3 C 8,3 C 100 % 1018,2 hPa 0,0 l/m 0 min 0 min 0 W/m 6,4 km/h (2 Bft) 95,74 %
09.01.2020 04:54 9,6 C 8,3 C 8,3 C 100 % 1018,2 hPa 0,0 l/m 0 min 0 min 0 W/m 16,1 km/h (3 Bft) 93,62 %
09.01.2020 04:56 9,6 C 8,3 C 8,3 C 100 % 1018,2 hPa 0,0 l/m 0 min 0 min 0 W/m 12,9 km/h (3 Bft) 95,74 %
09.01.2020 04:58 9,6 C 8,9 C 8,3 C 100 % 1018,2 hPa 0,0 l/m 0 min 0 min 0 W/m 12,9 km/h (3 Bft) 95,65 %
09.01.2020 05:00 9,6 C 8,9 C 8,3 C 100 % 1018,2 hPa 0,0 l/m 0 min 0 min 0 W/m 0,0 km/h (0 Bft) 95,74 %
09.01.2020 05:02 9,6 C 8,9 C 8,3 C 100 % 1018,1 hPa 0,0 l/m 0 min 0 min 0 W/m 12,9 km/h (3 Bft) 95,74 %
09.01.2020 05:04 9,6 C 8,9 C 8,3 C 100 % 1018,1 hPa 0,0 l/m 0 min 0 min 0 W/m 16,1 km/h (3 Bft) 91,49 %
09.01.2020 05:06 9,6 C 8,9 C 8,3 C 100 % 1018,0 hPa 0,0 l/m 0 min 0 min 0 W/m 12,9 km/h (3 Bft) 97,87 %
09.01.2020 05:08 9,6 C 8,9 C 8,3 C 100 % 1018,0 hPa 0,0 l/m 0 min 0 min 0 W/m 16,1 km/h (3 Bft) 93,62 %
09.01.2020 05:10 9,6 C 8,9 C 8,3 C 100 % 1017,9 hPa 0,0 l/m 0 min 0 min 0 W/m 16,1 km/h (3 Bft) 95,65 %
09.01.2020 05:12 9,6 C 8,9 C 8,3 C 100 % 1017,9 hPa 0,0 l/m 0 min 0 min 0 W/m 6,4 km/h (2 Bft) 95,74 %
09.01.2020 05:14 9,6 C 8,9 C 8,3 C 100 % 1017,8 hPa 0,0 l/m 0 min 0 min 0 W/m 6,4 km/h (2 Bft) 95,74 %
09.01.2020 05:16 9,6 C 8,9 C 8,3 C 100 % 1017,8 hPa 0,0 l/m 0 min 0 min 0 W/m 12,9 km/h (3 Bft) 97,87 %
09.01.2020 05:18 9,6 C 8,9 C 8,3 C 100 % 1017,8 hPa 0,0 l/m 0 min 2 min 0 W/m 6,4 km/h (2 Bft) 97,87 %
09.01.2020 05:20 9,6 C 8,9 C 8,3 C 100 % 1017,8 hPa 0,0 l/m 0 min 2 min 0 W/m 12,9 km/h (3 Bft) 97,87 %
09.01.2020 05:22 9,6 C 8,9 C 8,3 C 100 % 1017,7 hPa 0,0 l/m 0 min 2 min 0 W/m 6,4 km/h (2 Bft) 97,83 %
09.01.2020 05:24 9,6 C 8,9 C 8,3 C 100 % 1017,7 hPa 0,0 l/m 0 min 2 min 0 W/m 6,4 km/h (2 Bft) 93,62 %
09.01.2020 05:26 9,6 C 8,9 C 8,3 C 100 % 1017,7 hPa 0,0 l/m 0 min 2 min 0 W/m 6,4 km/h (2 Bft) 93,62 %
09.01.2020 05:28 9,6 C 8,9 C 8,3 C 100 % 1017,7 hPa 0,0 l/m 0 min 2 min 0 W/m 16,1 km/h (3 Bft) 97,87 %
09.01.2020 05:30 9,6 C 8,9 C 8,3 C 100 % 1017,7 hPa 0,0 l/m 0 min 2 min 0 W/m 16,1 km/h (3 Bft) 95,74 %
09.01.2020 05:32 9,6 C 8,9 C 8,3 C 100 % 1017,7 hPa 0,0 l/m 0 min 2 min 0 W/m 16,1 km/h (3 Bft) 97,83 %
09.01.2020 05:34 9,6 C 8,9 C 8,3 C 100 % 1017,6 hPa 0,0 l/m 0 min 0 min 0 W/m 16,1 km/h (3 Bft) 95,74 %
09.01.2020 05:36 9,6 C 8,9 C 8,3 C 100 % 1017,6 hPa 0,0 l/m 0 min 0 min 0 W/m 12,9 km/h (3 Bft) 91,49 %
09.01.2020 05:38 9,6 C 8,9 C 8,3 C 100 % 1017,5 hPa 0,0 l/m 0 min 2 min 0 W/m 12,9 km/h (3 Bft) 97,87 %
09.01.2020 05:40 9,6 C 8,9 C 8,3 C 100 % 1017,6 hPa 0,0 l/m 0 min 0 min 0 W/m 6,4 km/h (2 Bft) 91,49 %
09.01.2020 05:42 9,6 C 8,9 C 8,3 C 100 % 1017,5 hPa 0,0 l/m 0 min 0 min 0 W/m 19,3 km/h (3 Bft) 97,87 %
09.01.2020 05:44 9,6 C 8,9 C 8,3 C 100 % 1017,4 hPa 0,0 l/m 0 min 2 min 0 W/m 16,1 km/h (3 Bft) 100,00 %
09.01.2020 05:46 9,6 C 8,9 C 8,3 C 100 % 1017,3 hPa 0,0 l/m 0 min 2 min 0 W/m 19,3 km/h (3 Bft) 97,87 %
09.01.2020 05:48 9,6 C 8,9 C 8,3 C 100 % 1017,3 hPa 0,0 l/m 0 min 2 min 0 W/m 22,5 km/h (4 Bft) 95,74 %
09.01.2020 05:50 9,7 C 8,9 C 8,3 C 100 % 1017,3 hPa 0,0 l/m 0 min 2 min 0 W/m 19,3 km/h (3 Bft) 97,87 %
09.01.2020 05:52 9,6 C 8,9 C 8,3 C 100 % 1017,3 hPa 0,0 l/m 0 min 2 min 0 W/m 12,9 km/h (3 Bft) 100,00 %
09.01.2020 05:54 9,6 C 8,9 C 8,3 C 100 % 1017,2 hPa 0,0 l/m 0 min 2 min 0 W/m 16,1 km/h (3 Bft) 97,87 %
09.01.2020 05:56 9,6 C 8,9 C 8,3 C 100 % 1017,2 hPa 0,0 l/m 0 min 0 min 0 W/m 22,5 km/h (4 Bft) 100,00 %
09.01.2020 05:58 9,6 C 8,9 C 8,3 C 100 % 1017,2 hPa 0,0 l/m 0 min 0 min 0 W/m 19,3 km/h (3 Bft) 95,74 %
09.01.2020 06:00 9,6 C 8,9 C 8,3 C 100 % 1017,2 hPa 0,0 l/m 0 min 0 min 0 W/m 19,3 km/h (3 Bft) 95,74 %
09.01.2020 06:02 9,7 C 8,9 C 8,3 C 100 % 1017,2 hPa 0,0 l/m 0 min 0 min 0 W/m 16,1 km/h (3 Bft) 91,49 %
09.01.2020 06:04 9,6 C 8,9 C 8,3 C 100 % 1017,0 hPa 0,0 l/m 0 min 0 min 0 W/m 29,0 km/h (5 Bft) 97,87 %
09.01.2020 06:06 9,6 C 8,9 C 8,3 C 100 % 1017,0 hPa 0,0 l/m 0 min 0 min 0 W/m 12,9 km/h (3 Bft) 97,87 %
09.01.2020 06:08 9,6 C 8,9 C 8,3 C 100 % 1017,0 hPa 0,0 l/m 0 min 2 min 0 W/m 16,1 km/h (3 Bft) 95,65 %
09.01.2020 06:10 9,6 C 8,9 C 8,3 C 100 % 1017,0 hPa 0,0 l/m 0 min 0 min 0 W/m 22,5 km/h (4 Bft) 97,87 %
09.01.2020 06:12 9,6 C 8,9 C 8,3 C 100 % 1016,9 hPa 0,0 l/m 0 min 0 min 0 W/m 12,9 km/h (3 Bft) 95,74 %
09.01.2020 06:14 9,6 C 8,9 C 8,3 C 100 % 1016,9 hPa 0,0 l/m 0 min 0 min 0 W/m 16,1 km/h (3 Bft) 97,87 %
09.01.2020 06:16 9,6 C 8,9 C 8,3 C 100 % 1016,8 hPa 0,0 l/m 0 min 0 min 0 W/m 16,1 km/h (3 Bft) 97,87 %
09.01.2020 06:18 9,6 C 8,9 C 8,3 C 100 % 1016,7 hPa 0,0 l/m 0 min 0 min 0 W/m 22,5 km/h (4 Bft) 91,49 %
09.01.2020 06:20 9,6 C 8,9 C 8,3 C 100 % 1016,7 hPa 0,0 l/m 0 min 0 min 0 W/m 22,5 km/h (4 Bft) 97,83 %
09.01.2020 06:22 9,6 C 8,9 C 8,3 C 100 % 1016,7 hPa 0,0 l/m 0 min 0 min 0 W/m 16,1 km/h (3 Bft) 97,87 %
09.01.2020 06:24 9,6 C 8,9 C 8,3 C 100 % 1016,8 hPa 0,0 l/m 0 min 0 min 0 W/m 16,1 km/h (3 Bft) 97,87 %
09.01.2020 06:26 9,6 C 8,9 C 8,3 C 100 % 1016,7 hPa 0,0 l/m 0 min 0 min 0 W/m 19,3 km/h (3 Bft) 97,87 %
09.01.2020 06:28 9,6 C 8,9 C 8,3 C 100 % 1016,7 hPa 0,0 l/m 0 min 0 min 0 W/m 22,5 km/h (4 Bft) 95,74 %
09.01.2020 06:30 9,6 C 8,9 C 8,3 C 100 % 1016,7 hPa 0,0 l/m 0 min 0 min 0 W/m 22,5 km/h (4 Bft) 97,83 %
09.01.2020 06:32 9,6 C 8,9 C 8,3 C 100 % 1016,7 hPa 0,0 l/m 0 min 2 min 0 W/m 22,5 km/h (4 Bft) 97,87 %
09.01.2020 06:34 9,6 C 8,9 C 8,3 C 100 % 1016,6 hPa 0,0 l/m 0 min 0 min 0 W/m 16,1 km/h (3 Bft) 95,74 %
09.01.2020 06:36 9,7 C 8,9 C 8,3 C 100 % 1016,6 hPa 0,0 l/m 0 min 0 min 0 W/m 16,1 km/h (3 Bft) 93,62 %
09.01.2020 06:38 9,7 C 8,9 C 8,3 C 100 % 1016,7 hPa 0,0 l/m 0 min 0 min 0 W/m 19,3 km/h (3 Bft) 95,74 %
09.01.2020 06:40 9,7 C 8,9 C 8,3 C 100 % 1016,6 hPa 0,0 l/m 0 min 0 min 0 W/m 16,1 km/h (3 Bft) 95,74 %
09.01.2020 06:42 9,7 C 8,9 C 8,3 C 100 % 1016,6 hPa 0,0 l/m 0 min 0 min 0 W/m 19,3 km/h (3 Bft) 86,96 %
09.01.2020 06:44 9,7 C 8,9 C 8,3 C 100 % 1016,6 hPa 0,0 l/m 0 min 2 min 0 W/m 16,1 km/h (3 Bft) 91,49 %
09.01.2020 06:46 9,7 C 8,9 C 8,3 C 100 % 1016,6 hPa 0,0 l/m 0 min 2 min 0 W/m 16,1 km/h (3 Bft) 93,62 %
09.01.2020 06:48 9,7 C 8,9 C 8,3 C 100 % 1016,5 hPa 0,0 l/m 0 min 0 min 0 W/m 19,3 km/h (3 Bft) 95,74 %
09.01.2020 06:50 9,7 C 8,9 C 8,3 C 100 % 1016,5 hPa 0,0 l/m 0 min 0 min 0 W/m 16,1 km/h (3 Bft) 95,74 %
09.01.2020 06:52 9,7 C 8,9 C 8,3 C 100 % 1016,5 hPa 0,0 l/m 0 min 0 min 0 W/m 12,9 km/h (3 Bft) 97,87 %
09.01.2020 06:54 9,7 C 8,9 C 8,3 C 100 % 1016,4 hPa 0,0 l/m 0 min 0 min 0 W/m 19,3 km/h (3 Bft) 97,83 %
09.01.2020 06:56 9,7 C 8,9 C 8,3 C 100 % 1016,5 hPa 0,0 l/m 0 min 0 min 0 W/m 25,7 km/h (4 Bft) 97,87 %
09.01.2020 06:58 9,7 C 8,9 C 8,3 C 100 % 1016,4 hPa 0,0 l/m 0 min 0 min 0 W/m 22,5 km/h (4 Bft) 97,87 %
09.01.2020 07:00 9,7 C 8,9 C 8,3 C 100 % 1016,3 hPa 0,0 l/m 0 min 2 min 0 W/m 19,3 km/h (3 Bft) 95,74 %
09.01.2020 07:02 9,7 C 8,9 C 8,3 C 100 % 1016,4 hPa 0,0 l/m 0 min 2 min 0 W/m 19,3 km/h (3 Bft) 97,87 %
09.01.2020 07:04 9,8 C 8,9 C 8,3 C 100 % 1016,3 hPa 0,0 l/m 0 min 2 min 0 W/m 19,3 km/h (3 Bft) 97,87 %
09.01.2020 07:06 9,8 C 8,9 C 8,3 C 100 % 1016,3 hPa 0,0 l/m 0 min 2 min 0 W/m 19,3 km/h (3 Bft) 97,83 %
09.01.2020 07:08 9,8 C 8,9 C 8,3 C 100 % 1016,3 hPa 0,0 l/m 0 min 0 min 0 W/m 16,1 km/h (3 Bft) 95,74 %
09.01.2020 07:10 9,8 C 8,9 C 8,3 C 100 % 1016,2 hPa 0,0 l/m 0 min 0 min 0 W/m 22,5 km/h (4 Bft) 97,87 %
09.01.2020 07:12 9,8 C 8,9 C 8,3 C 100 % 1016,2 hPa 0,0 l/m 0 min 2 min 0 W/m 25,7 km/h (4 Bft) 97,87 %
09.01.2020 07:14 9,8 C 8,9 C 8,3 C 100 % 1016,2 hPa 0,0 l/m 0 min 2 min 0 W/m 22,5 km/h (4 Bft) 97,87 %
09.01.2020 07:16 9,8 C 8,9 C 8,3 C 100 % 1016,2 hPa 0,0 l/m 0 min 0 min 0 W/m 19,3 km/h (3 Bft) 100,00 %
09.01.2020 07:18 9,8 C 8,9 C 8,3 C 100 % 1016,1 hPa 0,0 l/m 0 min 0 min 0 W/m 29,0 km/h (5 Bft) 97,83 %
09.01.2020 07:20 9,8 C 8,9 C 8,3 C 100 % 1016,1 hPa 0,0 l/m 0 min 0 min 0 W/m 29,0 km/h (5 Bft) 100,00 %
09.01.2020 07:22 9,8 C 8,9 C 8,3 C 100 % 1016,1 hPa 0,0 l/m 0 min 0 min 0 W/m 22,5 km/h (4 Bft) 100,00 %
09.01.2020 07:24 9,8 C 8,9 C 8,3 C 100 % 1016,1 hPa 0,0 l/m 0 min 0 min 0 W/m 19,3 km/h (3 Bft) 100,00 %
09.01.2020 07:26 9,8 C 8,9 C 8,3 C 100 % 1016,0 hPa 0,0 l/m 0 min 0 min 0 W/m 29,0 km/h (5 Bft) 97,87 %
09.01.2020 07:28 9,8 C 8,9 C 8,3 C 100 % 1015,9 hPa 0,0 l/m 0 min 0 min 0 W/m 19,3 km/h (3 Bft) 100,00 %
09.01.2020 07:30 9,8 C 8,9 C 8,3 C 100 % 1015,9 hPa 0,0 l/m 0 min 0 min 0 W/m 22,5 km/h (4 Bft) 100,00 %
09.01.2020 07:32 9,8 C 8,9 C 8,3 C 100 % 1015,9 hPa 0,0 l/m 0 min 0 min 0 W/m 25,7 km/h (4 Bft) 100,00 %
09.01.2020 07:34 9,8 C 8,9 C 8,3 C 100 % 1015,9 hPa 0,0 l/m 0 min 0 min 0 W/m 19,3 km/h (3 Bft) 100,00 %
09.01.2020 07:36 9,9 C 8,9 C 8,3 C 100 % 1015,8 hPa 0,0 l/m 0 min 0 min 0 W/m 19,3 km/h (3 Bft) 100,00 %
09.01.2020 07:38 9,9 C 8,9 C 8,3 C 100 % 1015,8 hPa 0,0 l/m 0 min 0 min 0 W/m 19,3 km/h (3 Bft) 100,00 %
09.01.2020 07:40 9,9 C 8,9 C 8,3 C 100 % 1015,7 hPa 0,0 l/m 0 min 2 min 0 W/m 19,3 km/h (3 Bft) 100,00 %
09.01.2020 07:42 9,9 C 8,9 C 8,3 C 100 % 1015,7 hPa 0,0 l/m 0 min 2 min 0 W/m 22,5 km/h (4 Bft) 100,00 %
09.01.2020 07:44 9,9 C 8,9 C 8,3 C 100 % 1015,7 hPa 0,0 l/m 0 min 2 min 0 W/m 22,5 km/h (4 Bft) 100,00 %
09.01.2020 07:46 9,9 C 8,9 C 8,3 C 100 % 1015,6 hPa 0,0 l/m 0 min 2 min 0 W/m 22,5 km/h (4 Bft) 100,00 %
09.01.2020 07:48 9,9 C 8,9 C 8,3 C 100 % 1015,6 hPa 0,0 l/m 0 min 2 min 0 W/m 22,5 km/h (4 Bft) 100,00 %
09.01.2020 07:50 9,9 C 8,9 C 8,3 C 100 % 1015,6 hPa 0,0 l/m 0 min 2 min 0 W/m 16,1 km/h (3 Bft) 93,62 %
09.01.2020 07:52 9,9 C 8,9 C 8,3 C 100 % 1015,5 hPa 0,0 l/m 0 min 2 min 0 W/m 22,5 km/h (4 Bft) 100,00 %
09.01.2020 07:54 9,9 C 8,9 C 8,3 C 100 % 1015,5 hPa 0,0 l/m 0 min 0 min 0 W/m 19,3 km/h (3 Bft) 100,00 %
09.01.2020 07:56 9,9 C 8,9 C 8,3 C 100 % 1015,4 hPa 0,0 l/m 0 min 0 min 0 W/m 16,1 km/h (3 Bft) 100,00 %
09.01.2020 07:58 9,9 C 8,9 C 8,3 C 100 % 1015,4 hPa 0,0 l/m 0 min 2 min 0 W/m 25,7 km/h (4 Bft) 100,00 %
09.01.2020 08:00 9,9 C 8,9 C 8,3 C 100 % 1015,4 hPa 0,0 l/m 0 min 2 min 0 W/m 22,5 km/h (4 Bft) 100,00 %
09.01.2020 08:02 10,0 C 8,9 C 8,3 C 100 % 1015,3 hPa 0,0 l/m 0 min 2 min 0 W/m 19,3 km/h (3 Bft) 97,87 %
09.01.2020 08:04 9,9 C 8,9 C 8,3 C 100 % 1015,3 hPa 0,0 l/m 0 min 2 min 0 W/m 22,5 km/h (4 Bft) 97,83 %
09.01.2020 08:06 10,0 C 8,9 C 8,3 C 100 % 1015,3 hPa 0,0 l/m 0 min 2 min 0 W/m 19,3 km/h (3 Bft) 96,36 %
09.01.2020 08:08 10,0 C 8,9 C 8,9 C 100 % 1015,3 hPa 0,0 l/m 0 min 2 min 0 W/m 19,3 km/h (3 Bft) 97,87 %
09.01.2020 08:10 10,0 C 8,9 C 8,3 C 100 % 1015,3 hPa 0,0 l/m 0 min 2 min 0 W/m 12,9 km/h (3 Bft) 97,87 %
09.01.2020 08:12 10,1 C 8,9 C 8,9 C 100 % 1015,3 hPa 0,2 l/m 0 min 2 min 0 W/m 29,0 km/h (5 Bft) 97,83 %
09.01.2020 08:14 10,1 C 8,9 C 8,9 C 100 % 1015,3 hPa 0,0 l/m 0 min 2 min 0 W/m 22,5 km/h (4 Bft) 97,87 %
09.01.2020 08:16 10,1 C 8,9 C 8,9 C 100 % 1015,2 hPa 0,0 l/m 0 min 2 min 0 W/m 25,7 km/h (4 Bft) 97,87 %
09.01.2020 08:18 10,1 C 8,9 C 8,9 C 100 % 1015,2 hPa 0,0 l/m 0 min 2 min 0 W/m 19,3 km/h (3 Bft) 97,87 %
09.01.2020 08:20 10,1 C 8,9 C 8,9 C 100 % 1015,2 hPa 0,0 l/m 0 min 2 min 0 W/m 22,5 km/h (4 Bft) 97,87 %
09.01.2020 08:22 10,1 C 8,9 C 8,9 C 100 % 1015,1 hPa 0,0 l/m 0 min 2 min 0 W/m 12,9 km/h (3 Bft) 97,83 %
09.01.2020 08:24 10,1 C 8,9 C 8,9 C 100 % 1015,1 hPa 0,0 l/m 0 min 2 min 0 W/m 16,1 km/h (3 Bft) 97,87 %
09.01.2020 08:26 10,1 C 9,4 C 8,9 C 100 % 1015,2 hPa 0,0 l/m 0 min 2 min 0 W/m 6,4 km/h (2 Bft) 97,87 %
09.01.2020 08:28 10,1 C 9,4 C 8,9 C 100 % 1015,2 hPa 0,0 l/m 0 min 2 min 0 W/m 12,9 km/h (3 Bft) 97,87 %
09.01.2020 08:30 10,1 C 9,4 C 8,9 C 100 % 1015,2 hPa 0,0 l/m 0 min 2 min 0 W/m 12,9 km/h (3 Bft) 95,74 %
09.01.2020 08:32 10,1 C 9,4 C 8,9 C 100 % 1015,3 hPa 0,0 l/m 0 min 2 min 0 W/m 16,1 km/h (3 Bft) 97,87 %
09.01.2020 08:34 10,1 C 9,4 C 8,9 C 100 % 1015,2 hPa 0,0 l/m 0 min 2 min 0 W/m 19,3 km/h (3 Bft) 97,83 %
09.01.2020 08:36 10,1 C 9,4 C 8,9 C 100 % 1015,2 hPa 0,0 l/m 0 min 2 min 0 W/m 16,1 km/h (3 Bft) 95,74 %
09.01.2020 08:38 10,2 C 9,4 C 8,9 C 100 % 1015,2 hPa 0,0 l/m 0 min 2 min 0 W/m 19,3 km/h (3 Bft) 97,87 %
09.01.2020 08:40 10,2 C 9,4 C 8,9 C 100 % 1015,2 hPa 0,0 l/m 0 min 0 min 0 W/m 16,1 km/h (3 Bft) 97,87 %
09.01.2020 08:42 10,2 C 9,4 C 8,9 C 100 % 1015,1 hPa 0,0 l/m 0 min 0 min 0 W/m 6,4 km/h (2 Bft) 97,87 %
09.01.2020 08:44 10,2 C 9,4 C 8,9 C 100 % 1015,1 hPa 0,0 l/m 0 min 2 min 0 W/m 16,1 km/h (3 Bft) 95,74 %
09.01.2020 08:46 10,2 C 9,4 C 8,9 C 100 % 1015,1 hPa 0,0 l/m 0 min 0 min 0 W/m 16,1 km/h (3 Bft) 95,65 %
09.01.2020 08:48 10,2 C 9,4 C 8,9 C 100 % 1015,1 hPa 0,0 l/m 0 min 0 min 1 W/m 16,1 km/h (3 Bft) 95,74 %
09.01.2020 08:50 10,2 C 9,4 C 8,9 C 100 % 1015,0 hPa 0,0 l/m 0 min 0 min 5 W/m 16,1 km/h (3 Bft) 93,62 %
09.01.2020 08:52 10,2 C 9,4 C 8,9 C 100 % 1015,0 hPa 0,0 l/m 0 min 0 min 6 W/m 19,3 km/h (3 Bft) 97,87 %
09.01.2020 08:54 10,2 C 9,4 C 8,9 C 100 % 1015,0 hPa 0,0 l/m 0 min 0 min 7 W/m 19,3 km/h (3 Bft) 97,87 %
09.01.2020 08:56 10,2 C 9,4 C 8,9 C 100 % 1015,0 hPa 0,0 l/m 0 min 0 min 7 W/m 19,3 km/h (3 Bft) 97,87 %
09.01.2020 08:58 10,2 C 9,4 C 8,9 C 100 % 1015,0 hPa 0,0 l/m 0 min 0 min 8 W/m 22,5 km/h (4 Bft) 97,83 %
09.01.2020 09:00 10,2 C 9,4 C 8,9 C 100 % 1015,0 hPa 0,0 l/m 0 min 0 min 9 W/m 19,3 km/h (3 Bft) 95,74 %
09.01.2020 09:02 10,2 C 9,4 C 8,9 C 100 % 1015,0 hPa 0,0 l/m 0 min 0 min 9 W/m 16,1 km/h (3 Bft) 93,62 %
09.01.2020 09:04 10,2 C 9,4 C 8,9 C 100 % 1015,1 hPa 0,0 l/m 0 min 0 min 9 W/m 16,1 km/h (3 Bft) 95,74 %
09.01.2020 09:06 10,2 C 9,4 C 8,9 C 100 % 1015,1 hPa 0,0 l/m 0 min 0 min 8 W/m 16,1 km/h (3 Bft) 95,74 %
09.01.2020 09:08 10,2 C 9,4 C 8,9 C 100 % 1015,0 hPa 0,0 l/m 0 min 0 min 7 W/m 16,1 km/h (3 Bft) 93,62 %
09.01.2020 09:10 10,2 C 9,4 C 8,9 C 100 % 1015,0 hPa 0,0 l/m 0 min 0 min 7 W/m 12,9 km/h (3 Bft) 95,65 %
09.01.2020 09:12 10,2 C 9,4 C 8,9 C 100 % 1015,0 hPa 0,0 l/m 0 min 0 min 7 W/m 16,1 km/h (3 Bft) 95,74 %
09.01.2020 09:14 10,2 C 9,4 C 8,9 C 100 % 1015,1 hPa 0,0 l/m 0 min 0 min 7 W/m 12,9 km/h (3 Bft) 95,74 %
09.01.2020 09:16 10,3 C 9,4 C 8,9 C 100 % 1015,1 hPa 0,0 l/m 0 min 0 min 5 W/m 16,1 km/h (3 Bft) 93,62 %
09.01.2020 09:18 10,3 C 9,4 C 8,9 C 100 % 1015,1 hPa 0,0 l/m 0 min 0 min 7 W/m 12,9 km/h (3 Bft) 95,74 %
09.01.2020 09:20 10,3 C 9,4 C 8,9 C 100 % 1015,1 hPa 0,0 l/m 0 min 0 min 7 W/m 6,4 km/h (2 Bft) 95,74 %
09.01.2020 09:22 10,3 C 9,4 C 8,9 C 100 % 1015,1 hPa 0,0 l/m 0 min 0 min 9 W/m 6,4 km/h (2 Bft) 95,65 %
09.01.2020 09:24 10,3 C 9,4 C 8,9 C 100 % 1015,1 hPa 0,0 l/m 0 min 0 min 9 W/m 16,1 km/h (3 Bft) 93,62 %
09.01.2020 09:26 10,3 C 9,4 C 8,9 C 100 % 1015,0 hPa 0,0 l/m 0 min 0 min 7 W/m 12,9 km/h (3 Bft) 95,74 %
09.01.2020 09:28 10,3 C 9,4 C 8,9 C 100 % 1015,1 hPa 0,0 l/m 0 min 0 min 7 W/m 12,9 km/h (3 Bft) 95,74 %
09.01.2020 09:30 10,3 C 9,4 C 8,9 C 100 % 1015,0 hPa 0,0 l/m 0 min 0 min 9 W/m 3,2 km/h (1 Bft) 95,74 %
09.01.2020 09:32 10,3 C 9,4 C 8,9 C 100 % 1015,0 hPa 0,0 l/m 0 min 0 min 9 W/m 12,9 km/h (3 Bft) 93,62 %
09.01.2020 09:34 10,3 C 9,4 C 8,9 C 100 % 1015,0 hPa 0,0 l/m 0 min 0 min 9 W/m 19,3 km/h (3 Bft) 95,65 %
09.01.2020 09:36 10,3 C 9,4 C 8,9 C 100 % 1015,0 hPa 0,0 l/m 0 min 2 min 11 W/m 19,3 km/h (3 Bft) 95,74 %
09.01.2020 09:38 10,3 C 9,4 C 8,9 C 100 % 1015,0 hPa 0,0 l/m 0 min 0 min 14 W/m 12,9 km/h (3 Bft) 95,74 %
09.01.2020 09:40 10,3 C 9,4 C 8,9 C 100 % 1015,0 hPa 0,0 l/m 0 min 2 min 18 W/m 16,1 km/h (3 Bft) 93,62 %
09.01.2020 09:42 10,3 C 9,4 C 8,9 C 100 % 1014,9 hPa 0,0 l/m 0 min 2 min 16 W/m 6,4 km/h (2 Bft) 95,74 %
09.01.2020 09:44 10,3 C 9,4 C 8,9 C 100 % 1014,9 hPa 0,0 l/m 0 min 0 min 17 W/m 12,9 km/h (3 Bft) 97,83 %
09.01.2020 09:46 10,3 C 9,4 C 8,9 C 100 % 1014,8 hPa 0,0 l/m 0 min 0 min 19 W/m 16,1 km/h (3 Bft) 97,87 %
09.01.2020 09:48 10,3 C 9,4 C 8,9 C 100 % 1014,8 hPa 0,0 l/m 0 min 2 min 20 W/m 16,1 km/h (3 Bft) 100,00 %
09.01.2020 09:50 10,3 C 9,4 C 8,9 C 100 % 1014,8 hPa 0,0 l/m 0 min 2 min 22 W/m 12,9 km/h (3 Bft) 100,00 %
09.01.2020 09:52 10,3 C 9,4 C 8,9 C 100 % 1014,8 hPa 0,0 l/m 0 min 2 min 22 W/m 22,5 km/h (4 Bft) 100,00 %
09.01.2020 09:54 10,3 C 9,4 C 8,9 C 100 % 1014,7 hPa 0,0 l/m 0 min 2 min 25 W/m 12,9 km/h (3 Bft) 100,00 %
09.01.2020 09:56 10,3 C 9,4 C 8,9 C 100 % 1014,7 hPa 0,0 l/m 0 min 2 min 26 W/m 12,9 km/h (3 Bft) 100,00 %
09.01.2020 09:58 10,4 C 9,4 C 8,9 C 100 % 1014,7 hPa 0,0 l/m 0 min 2 min 24 W/m 12,9 km/h (3 Bft) 100,00 %
09.01.2020 10:00 10,4 C 9,4 C 8,9 C 100 % 1014,7 hPa 0,0 l/m 0 min 2 min 20 W/m 6,4 km/h (2 Bft) 100,00 %
09.01.2020 10:02 10,4 C 9,4 C 8,9 C 100 % 1014,6 hPa 0,2 l/m 0 min 2 min 19 W/m 12,9 km/h (3 Bft) 100,00 %
09.01.2020 10:04 10,4 C 9,4 C 8,9 C 100 % 1014,6 hPa 0,0 l/m 0 min 2 min 21 W/m 16,1 km/h (3 Bft) 100,00 %
09.01.2020 10:06 10,4 C 9,4 C 8,9 C 100 % 1014,6 hPa 0,0 l/m 0 min 2 min 20 W/m 19,3 km/h (3 Bft) 100,00 %
09.01.2020 10:08 10,4 C 9,4 C 8,9 C 100 % 1014,6 hPa 0,0 l/m 0 min 0 min 21 W/m 19,3 km/h (3 Bft) 100,00 %
09.01.2020 10:10 10,4 C 9,4 C 8,9 C 100 % 1014,5 hPa 0,0 l/m 0 min 0 min 21 W/m 16,1 km/h (3 Bft) 100,00 %
09.01.2020 10:12 10,4 C 9,4 C 8,9 C 100 % 1014,5 hPa 0,0 l/m 0 min 0 min 21 W/m 16,1 km/h (3 Bft) 100,00 %
09.01.2020 10:14 10,4 C 9,4 C 8,9 C 100 % 1014,5 hPa 0,0 l/m 0 min 0 min 19 W/m 16,1 km/h (3 Bft) 100,00 %
09.01.2020 10:16 10,4 C 9,4 C 8,9 C 100 % 1014,5 hPa 0,0 l/m 0 min 0 min 17 W/m 12,9 km/h (3 Bft) 97,87 %
09.01.2020 10:18 10,4 C 9,4 C 8,9 C 100 % 1014,5 hPa 0,0 l/m 0 min 0 min 15 W/m 19,3 km/h (3 Bft) 100,00 %
09.01.2020 10:20 10,5 C 9,4 C 8,9 C 100 % 1014,5 hPa 0,0 l/m 0 min 0 min 16 W/m 12,9 km/h (3 Bft) 100,00 %
09.01.2020 10:22 10,5 C 9,4 C 8,9 C 100 % 1014,5 hPa 0,0 l/m 0 min 0 min 16 W/m 6,4 km/h (2 Bft) 100,00 %
09.01.2020 10:24 10,5 C 9,4 C 8,9 C 100 % 1014,4 hPa 0,0 l/m 0 min 0 min 15 W/m 12,9 km/h (3 Bft) 100,00 %
09.01.2020 10:26 10,5 C 9,4 C 9,4 C 100 % 1014,5 hPa 0,0 l/m 0 min 0 min 14 W/m 6,4 km/h (2 Bft) 100,00 %
09.01.2020 10:28 10,5 C 9,4 C 9,4 C 100 % 1014,5 hPa 0,0 l/m 0 min 0 min 16 W/m 6,4 km/h (2 Bft) 100,00 %
09.01.2020 10:30 10,5 C 9,4 C 9,4 C 100 % 1014,5 hPa 0,0 l/m 0 min 0 min 15 W/m 0,0 km/h (0 Bft) 100,00 %
09.01.2020 10:32 10,5 C 9,4 C 9,4 C 100 % 1014,5 hPa 0,0 l/m 0 min 2 min 16 W/m 6,4 km/h (2 Bft) 100,00 %
09.01.2020 10:34 10,6 C 9,4 C 9,4 C 100 % 1014,5 hPa 0,0 l/m 0 min 2 min 19 W/m 6,4 km/h (2 Bft) 100,00 %
09.01.2020 10:36 10,6 C 9,4 C 9,4 C 100 % 1014,5 hPa 0,0 l/m 0 min 2 min 22 W/m 6,4 km/h (2 Bft) 100,00 %
09.01.2020 10:38 10,6 C 9,4 C 9,4 C 100 % 1014,5 hPa 0,0 l/m 0 min 2 min 21 W/m 6,4 km/h (2 Bft) 100,00 %
09.01.2020 10:40 10,6 C 9,4 C 9,4 C 100 % 1014,5 hPa 0,0 l/m 0 min 2 min 23 W/m 12,9 km/h (3 Bft) 100,00 %
09.01.2020 10:42 10,6 C 9,4 C 9,4 C 100 % 1014,5 hPa 0,0 l/m 0 min 0 min 22 W/m 3,2 km/h (1 Bft) 97,83 %
09.01.2020 10:44 10,6 C 9,4 C 9,4 C 100 % 1014,6 hPa 0,0 l/m 0 min 0 min 18 W/m 6,4 km/h (2 Bft) 100,00 %
09.01.2020 10:46 10,6 C 9,4 C 9,4 C 100 % 1014,5 hPa 0,0 l/m 0 min 0 min 18 W/m 3,2 km/h (1 Bft) 97,87 %
09.01.2020 10:48 10,6 C 9,4 C 9,4 C 100 % 1014,5 hPa 0,0 l/m 0 min 0 min 18 W/m 6,4 km/h (2 Bft) 100,00 %
09.01.2020 10:50 10,6 C 9,4 C 9,4 C 100 % 1014,5 hPa 0,0 l/m 0 min 2 min 17 W/m 6,4 km/h (2 Bft) 100,00 %
09.01.2020 10:52 10,6 C 9,4 C 9,4 C 100 % 1014,5 hPa 0,0 l/m 0 min 0 min 18 W/m 12,9 km/h (3 Bft) 100,00 %
09.01.2020 10:54 10,6 C 9,4 C 9,4 C 100 % 1014,5 hPa 0,0 l/m 0 min 0 min 18 W/m 3,2 km/h (1 Bft) 100,00 %
09.01.2020 10:56 10,6 C 10,0 C 9,4 C 100 % 1014,4 hPa 0,0 l/m 0 min 0 min 19 W/m 0,0 km/h (0 Bft) 100,00 %
09.01.2020 10:58 10,6 C 10,0 C 9,4 C 100 % 1014,4 hPa 0,0 l/m 0 min 0 min 24 W/m 16,1 km/h (3 Bft) 100,00 %
09.01.2020 11:00 10,6 C 10,0 C 9,4 C 100 % 1014,3 hPa 0,0 l/m 0 min 0 min 26 W/m 12,9 km/h (3 Bft) 97,87 %
09.01.2020 11:02 10,6 C 10,0 C 9,4 C 100 % 1014,5 hPa 0,0 l/m 0 min 0 min 20 W/m 12,9 km/h (3 Bft) 100,00 %
09.01.2020 11:04 10,6 C 10,0 C 9,4 C 100 % 1014,4 hPa 0,0 l/m 0 min 0 min 18 W/m 3,2 km/h (1 Bft) 97,87 %
09.01.2020 11:06 10,6 C 10,0 C 9,4 C 100 % 1014,4 hPa 0,0 l/m 0 min 0 min 18 W/m 12,9 km/h (3 Bft) 97,83 %
09.01.2020 11:08 10,6 C 10,0 C 9,4 C 100 % 1014,4 hPa 0,0 l/m 0 min 0 min 18 W/m 6,4 km/h (2 Bft) 97,87 %
09.01.2020 11:16 10,7 C 10,0 C 9,4 C 100 % 1014,3 hPa 0,0 l/m 0 min 0 min 18 W/m 3,2 km/h (1 Bft) 95,83 %
09.01.2020 11:18 10,7 C 10,0 C 9,4 C 100 % 1014,3 hPa 0,0 l/m 0 min 0 min 19 W/m 6,4 km/h (2 Bft) 98,00 %
09.01.2020 11:20 10,7 C 10,0 C 9,4 C 100 % 1014,3 hPa 0,0 l/m 0 min 0 min 21 W/m 3,2 km/h (1 Bft) 97,87 %
09.01.2020 11:24 10,7 C 10,0 C 9,4 C 100 % 1014,2 hPa 0,0 l/m 0 min 0 min 22 W/m 25,7 km/h (4 Bft) 96,59 %
09.01.2020 11:26 10,8 C 10,6 C 9,4 C 100 % 1014,2 hPa 0,0 l/m 0 min 0 min 20 W/m 16,1 km/h (3 Bft) 97,87 %
09.01.2020 11:28 10,8 C 10,6 C 9,4 C 100 % 1014,2 hPa 0,0 l/m 0 min 0 min 21 W/m 3,2 km/h (1 Bft) 97,87 %
09.01.2020 11:30 10,9 C 10,6 C 10,0 C 100 % 1014,2 hPa 0,0 l/m 0 min 0 min 26 W/m 16,1 km/h (3 Bft) 94,55 %
09.01.2020 11:32 10,9 C 10,6 C 10,0 C 100 % 1014,1 hPa 0,0 l/m 0 min 0 min 36 W/m 22,5 km/h (4 Bft) 95,74 %
09.01.2020 11:34 10,9 C 10,6 C 10,0 C 100 % 1014,2 hPa 0,0 l/m 0 min 2 min 33 W/m 16,1 km/h (3 Bft) 93,48 %
09.01.2020 11:38 11,1 C 10,6 C 10,0 C 100 % 1014,0 hPa 0,0 l/m 0 min 4 min 31 W/m 22,5 km/h (4 Bft) 96,94 %
09.01.2020 11:40 11,1 C 10,6 C 10,0 C 100 % 1014,0 hPa 0,0 l/m 0 min 0 min 36 W/m 12,9 km/h (3 Bft) 93,62 %
09.01.2020 11:42 11,2 C 10,6 C 10,0 C 100 % 1013,9 hPa 0,0 l/m 0 min 2 min 42 W/m 19,3 km/h (3 Bft) 95,74 %
09.01.2020 11:44 11,2 C 10,6 C 10,0 C 100 % 1013,9 hPa 0,0 l/m 0 min 2 min 46 W/m 16,1 km/h (3 Bft) 95,74 %
09.01.2020 11:46 11,3 C 11,1 C 10,0 C 100 % 1013,9 hPa 0,0 l/m 0 min 2 min 52 W/m 22,5 km/h (4 Bft) 91,43 %
09.01.2020 11:48 11,3 C 11,1 C 10,0 C 100 % 1013,8 hPa 0,0 l/m 0 min 0 min 53 W/m 29,0 km/h (5 Bft) 93,62 %
09.01.2020 11:50 11,4 C 11,1 C 10,6 C 100 % 1013,9 hPa 0,0 l/m 0 min 2 min 57 W/m 19,3 km/h (3 Bft) 93,62 %
09.01.2020 11:52 11,4 C 11,1 C 10,6 C 100 % 1013,8 hPa 0,0 l/m 0 min 2 min 56 W/m 19,3 km/h (3 Bft) 95,74 %
09.01.2020 11:54 11,5 C 11,1 C 10,6 C 100 % 1013,7 hPa 0,0 l/m 0 min 0 min 53 W/m 29,0 km/h (5 Bft) 93,62 %
09.01.2020 11:56 11,6 C 11,1 C 10,6 C 100 % 1013,7 hPa 0,0 l/m 0 min 0 min 48 W/m 19,3 km/h (3 Bft) 93,62 %
09.01.2020 11:58 11,6 C 11,1 C 10,6 C 100 % 1013,6 hPa 0,0 l/m 0 min 0 min 46 W/m 25,7 km/h (4 Bft) 95,65 %
09.01.2020 12:00 11,6 C 11,1 C 10,6 C 100 % 1013,6 hPa 0,0 l/m 0 min 0 min 44 W/m 29,0 km/h (5 Bft) 95,74 %
09.01.2020 12:02 11,7 C 11,1 C 10,6 C 100 % 1013,6 hPa 0,0 l/m 0 min 0 min 42 W/m 32,2 km/h (5 Bft) 93,62 %
09.01.2020 12:04 11,7 C 11,1 C 10,6 C 100 % 1013,5 hPa 0,0 l/m 0 min 0 min 39 W/m 38,6 km/h (5 Bft) 95,74 %
09.01.2020 12:06 11,7 C 11,1 C 10,0 C 100 % 1013,5 hPa 0,0 l/m 0 min 2 min 32 W/m 22,5 km/h (4 Bft) 94,34 %
09.01.2020 12:08 11,7 C 11,1 C 10,0 C 100 % 1013,6 hPa 0,0 l/m 0 min 0 min 26 W/m 29,0 km/h (5 Bft) 91,84 %
09.01.2020 12:10 11,7 C 11,1 C 10,0 C 100 % 1013,6 hPa 0,0 l/m 0 min 0 min 25 W/m 25,7 km/h (4 Bft) 97,87 %
09.01.2020 12:12 11,8 C 11,1 C 10,0 C 100 % 1013,6 hPa 0,0 l/m 0 min 2 min 25 W/m 19,3 km/h (3 Bft) 97,87 %
09.01.2020 12:14 11,8 C 11,1 C 10,0 C 100 % 1013,5 hPa 0,0 l/m 0 min 2 min 23 W/m 22,5 km/h (4 Bft) 98,00 %
09.01.2020 12:16 11,8 C 11,1 C 10,0 C 100 % 1013,5 hPa 0,0 l/m 0 min 2 min 27 W/m 19,3 km/h (3 Bft) 97,87 %
09.01.2020 12:18 11,8 C 11,1 C 10,0 C 100 % 1013,5 hPa 0,0 l/m 0 min 2 min 29 W/m 25,7 km/h (4 Bft) 97,14 %
09.01.2020 12:20 11,8 C 11,1 C 10,0 C 100 % 1013,5 hPa 0,0 l/m 0 min 2 min 25 W/m 22,5 km/h (4 Bft) 97,87 %
09.01.2020 12:22 11,8 C 11,1 C 10,0 C 100 % 1013,4 hPa 0,0 l/m 0 min 2 min 21 W/m 35,4 km/h (5 Bft) 97,83 %
09.01.2020 12:24 11,9 C 11,1 C 10,0 C 100 % 1013,4 hPa 0,0 l/m 0 min 2 min 19 W/m 38,6 km/h (5 Bft) 97,87 %
09.01.2020 12:26 11,9 C 11,1 C 10,0 C 100 % 1013,4 hPa 0,0 l/m 0 min 2 min 21 W/m 35,4 km/h (5 Bft) 97,87 %
09.01.2020 12:28 11,9 C 10,6 C 10,0 C 100 % 1013,4 hPa 0,0 l/m 0 min 0 min 24 W/m 32,2 km/h (5 Bft) 98,15 %
09.01.2020 12:30 11,9 C 10,6 C 10,0 C 100 % 1013,3 hPa 0,0 l/m 0 min 2 min 23 W/m 35,4 km/h (5 Bft) 97,87 %
09.01.2020 12:32 11,9 C 10,6 C 10,0 C 99 % 1013,3 hPa 0,0 l/m 0 min 2 min 20 W/m 32,2 km/h (5 Bft) 97,96 %
09.01.2020 12:34 11,9 C 10,6 C 10,0 C 99 % 1013,3 hPa 0,0 l/m 0 min 2 min 24 W/m 29,0 km/h (5 Bft) 97,87 %
09.01.2020 12:36 12,0 C 10,6 C 10,0 C 99 % 1013,3 hPa 0,0 l/m 0 min 2 min 23 W/m 22,5 km/h (4 Bft) 97,87 %
09.01.2020 12:38 12,0 C 10,6 C 10,0 C 99 % 1013,2 hPa 0,0 l/m 0 min 2 min 22 W/m 22,5 km/h (4 Bft) 97,30 %
09.01.2020 12:40 12,0 C 10,6 C 10,0 C 98 % 1013,2 hPa 0,0 l/m 0 min 0 min 23 W/m 41,8 km/h (6 Bft) 97,87 %
09.01.2020 12:42 12,0 C 10,6 C 10,0 C 99 % 1013,2 hPa 0,0 l/m 0 min 2 min 23 W/m 32,2 km/h (5 Bft) 95,74 %
09.01.2020 12:44 12,1 C 10,6 C 10,0 C 98 % 1013,2 hPa 0,0 l/m 0 min 2 min 24 W/m 19,3 km/h (3 Bft) 100,00 %
09.01.2020 12:46 12,1 C 10,6 C 10,0 C 98 % 1013,0 hPa 0,0 l/m 0 min 0 min 27 W/m 48,3 km/h (6 Bft) 100,00 %
09.01.2020 12:48 12,1 C 11,1 C 10,0 C 98 % 1013,0 hPa 0,0 l/m 0 min 0 min 30 W/m 25,7 km/h (4 Bft) 100,00 %
09.01.2020 12:50 12,1 C 11,1 C 10,0 C 98 % 1013,0 hPa 0,0 l/m 0 min 0 min 27 W/m 22,5 km/h (4 Bft) 100,00 %
09.01.2020 12:52 12,1 C 11,1 C 10,0 C 97 % 1012,9 hPa 0,0 l/m 0 min 0 min 25 W/m 25,7 km/h (4 Bft) 100,00 %
09.01.2020 12:54 12,1 C 11,1 C 10,0 C 97 % 1012,8 hPa 0,0 l/m 0 min 0 min 23 W/m 41,8 km/h (6 Bft) 100,00 %
09.01.2020 12:56 12,1 C 11,1 C 10,0 C 97 % 1012,7 hPa 0,0 l/m 0 min 0 min 20 W/m 19,3 km/h (3 Bft) 97,83 %
09.01.2020 12:58 12,1 C 11,1 C 10,0 C 97 % 1012,8 hPa 0,0 l/m 0 min 0 min 18 W/m 29,0 km/h (5 Bft) 100,00 %
09.01.2020 13:00 12,1 C 11,1 C 10,0 C 97 % 1012,7 hPa 0,0 l/m 0 min 0 min 19 W/m 32,2 km/h (5 Bft) 100,00 %
09.01.2020 13:02 12,2 C 11,1 C 10,0 C 96 % 1012,7 hPa 0,0 l/m 0 min 0 min 21 W/m 38,6 km/h (5 Bft) 96,00 %
09.01.2020 13:04 12,2 C 11,1 C 10,0 C 96 % 1012,7 hPa 0,0 l/m 0 min 2 min 24 W/m 35,4 km/h (5 Bft) 100,00 %
09.01.2020 13:06 12,2 C 10,6 C 10,0 C 96 % 1012,6 hPa 0,0 l/m 0 min 0 min 30 W/m 29,0 km/h (5 Bft) 100,00 %
09.01.2020 13:08 12,2 C 10,6 C 10,0 C 96 % 1012,5 hPa 0,0 l/m 0 min 0 min 39 W/m 35,4 km/h (5 Bft) 100,00 %
09.01.2020 13:10 12,2 C 11,1 C 10,0 C 95 % 1012,5 hPa 0,0 l/m 0 min 0 min 46 W/m 22,5 km/h (4 Bft) 100,00 %
09.01.2020 13:12 12,2 C 11,1 C 10,0 C 95 % 1012,4 hPa 0,0 l/m 0 min 0 min 48 W/m 29,0 km/h (5 Bft) 100,00 %
09.01.2020 13:14 12,2 C 11,1 C 10,0 C 95 % 1012,4 hPa 0,0 l/m 0 min 0 min 51 W/m 25,7 km/h (4 Bft) 100,00 %
09.01.2020 13:16 12,2 C 11,1 C 10,0 C 95 % 1012,3 hPa 0,0 l/m 0 min 0 min 53 W/m 29,0 km/h (5 Bft) 100,00 %
09.01.2020 13:18 12,3 C 11,1 C 10,0 C 95 % 1012,3 hPa 0,0 l/m 0 min 0 min 51 W/m 29,0 km/h (5 Bft) 100,00 %
09.01.2020 13:20 12,3 C 11,1 C 10,0 C 95 % 1012,2 hPa 0,0 l/m 0 min 2 min 48 W/m 29,0 km/h (5 Bft) 97,83 %
09.01.2020 13:22 12,3 C 11,1 C 10,0 C 95 % 1012,2 hPa 0,0 l/m 0 min 2 min 40 W/m 22,5 km/h (4 Bft) 100,00 %
09.01.2020 13:24 12,2 C 11,1 C 10,0 C 95 % 1012,1 hPa 0,0 l/m 0 min 2 min 35 W/m 25,7 km/h (4 Bft) 100,00 %
09.01.2020 13:26 12,2 C 11,1 C 10,0 C 95 % 1012,1 hPa 0,0 l/m 0 min 2 min 37 W/m 29,0 km/h (5 Bft) 100,00 %
09.01.2020 13:28 12,2 C 11,1 C 10,0 C 95 % 1012,1 hPa 0,0 l/m 0 min 2 min 39 W/m 25,7 km/h (4 Bft) 98,00 %
09.01.2020 13:30 12,2 C 10,6 C 10,0 C 95 % 1012,1 hPa 0,0 l/m 0 min 2 min 43 W/m 35,4 km/h (5 Bft) 97,30 %
09.01.2020 13:32 12,2 C 10,6 C 10,0 C 95 % 1012,1 hPa 0,0 l/m 0 min 2 min 42 W/m 29,0 km/h (5 Bft) 100,00 %
09.01.2020 13:34 12,2 C 10,6 C 10,0 C 95 % 1012,1 hPa 0,0 l/m 0 min 2 min 36 W/m 35,4 km/h (5 Bft) 100,00 %
09.01.2020 13:36 12,2 C 10,6 C 10,0 C 95 % 1012,0 hPa 0,0 l/m 0 min 2 min 32 W/m 25,7 km/h (4 Bft) 98,11 %
09.01.2020 13:38 12,2 C 10,6 C 10,0 C 95 % 1012,0 hPa 0,0 l/m 0 min 2 min 26 W/m 32,2 km/h (5 Bft) 100,00 %
09.01.2020 13:40 12,2 C 10,6 C 10,0 C 95 % 1011,9 hPa 0,0 l/m 0 min 2 min 25 W/m 25,7 km/h (4 Bft) 96,00 %
09.01.2020 13:42 12,2 C 10,6 C 10,0 C 95 % 1011,9 hPa 0,0 l/m 0 min 2 min 28 W/m 19,3 km/h (3 Bft) 100,00 %
09.01.2020 13:44 12,2 C 10,6 C 10,0 C 95 % 1011,8 hPa 0,0 l/m 0 min 2 min 33 W/m 19,3 km/h (3 Bft) 100,00 %
09.01.2020 13:46 12,2 C 10,6 C 10,0 C 95 % 1011,7 hPa 0,0 l/m 0 min 0 min 40 W/m 29,0 km/h (5 Bft) 100,00 %
09.01.2020 13:48 12,1 C 10,6 C 10,0 C 95 % 1011,7 hPa 0,0 l/m 0 min 0 min 44 W/m 25,7 km/h (4 Bft) 100,00 %
09.01.2020 13:50 12,1 C 10,6 C 10,0 C 95 % 1011,6 hPa 0,0 l/m 0 min 0 min 47 W/m 29,0 km/h (5 Bft) 100,00 %
09.01.2020 13:52 12,1 C 10,6 C 10,0 C 95 % 1011,6 hPa 0,0 l/m 0 min 2 min 44 W/m 16,1 km/h (3 Bft) 100,00 %
09.01.2020 13:54 12,1 C 10,6 C 10,0 C 95 % 1011,8 hPa 0,0 l/m 0 min 0 min 40 W/m 19,3 km/h (3 Bft) 97,83 %
09.01.2020 13:56 12,1 C 11,1 C 10,0 C 95 % 1011,8 hPa 0,0 l/m 0 min 0 min 42 W/m 16,1 km/h (3 Bft) 100,00 %
09.01.2020 13:58 12,1 C 11,1 C 10,0 C 95 % 1011,8 hPa 0,0 l/m 0 min 0 min 42 W/m 25,7 km/h (4 Bft) 100,00 %
09.01.2020 14:00 12,2 C 11,1 C 10,0 C 95 % 1011,7 hPa 0,2 l/m 0 min 0 min 37 W/m 29,0 km/h (5 Bft) 97,87 %
09.01.2020 14:02 12,1 C 11,1 C 10,0 C 95 % 1011,8 hPa 0,0 l/m 0 min 0 min 33 W/m 19,3 km/h (3 Bft) 97,14 %
09.01.2020 14:04 12,2 C 11,1 C 10,0 C 95 % 1011,6 hPa 0,0 l/m 0 min 0 min 32 W/m 22,5 km/h (4 Bft) 98,28 %
09.01.2020 14:06 12,2 C 11,1 C 10,0 C 96 % 1011,8 hPa 0,0 l/m 0 min 0 min 31 W/m 25,7 km/h (4 Bft) 97,87 %
09.01.2020 14:08 12,2 C 11,1 C 10,0 C 96 % 1011,8 hPa 0,0 l/m 0 min 0 min 30 W/m 19,3 km/h (3 Bft) 95,74 %
09.01.2020 14:10 12,2 C 11,1 C 10,0 C 96 % 1011,8 hPa 0,0 l/m 0 min 0 min 28 W/m 16,1 km/h (3 Bft) 100,00 %
09.01.2020 14:12 12,2 C 11,1 C 10,0 C 96 % 1011,8 hPa 0,0 l/m 0 min 0 min 26 W/m 19,3 km/h (3 Bft) 98,31 %
09.01.2020 14:14 12,2 C 11,1 C 10,0 C 96 % 1011,9 hPa 0,0 l/m 0 min 0 min 26 W/m 22,5 km/h (4 Bft) 97,14 %
09.01.2020 14:16 12,2 C 11,1 C 10,6 C 96 % 1011,8 hPa 0,0 l/m 0 min 0 min 26 W/m 19,3 km/h (3 Bft) 93,62 %
09.01.2020 14:18 12,2 C 11,1 C 10,6 C 96 % 1011,9 hPa 0,0 l/m 0 min 0 min 27 W/m 16,1 km/h (3 Bft) 95,65 %
09.01.2020 14:20 12,2 C 11,7 C 10,6 C 96 % 1011,9 hPa 0,0 l/m 0 min 0 min 33 W/m 25,7 km/h (4 Bft) 95,74 %
09.01.2020 14:22 12,2 C 11,7 C 10,6 C 96 % 1011,8 hPa 0,0 l/m 0 min 0 min 36 W/m 22,5 km/h (4 Bft) 93,62 %
09.01.2020 14:24 12,3 C 11,7 C 10,6 C 96 % 1011,9 hPa 0,0 l/m 0 min 0 min 32 W/m 35,4 km/h (5 Bft) 95,74 %
09.01.2020 14:26 12,3 C 11,7 C 10,6 C 96 % 1011,9 hPa 0,0 l/m 0 min 0 min 32 W/m 22,5 km/h (4 Bft) 94,44 %
09.01.2020 14:28 12,3 C 11,7 C 10,6 C 96 % 1011,8 hPa 0,0 l/m 0 min 0 min 37 W/m 22,5 km/h (4 Bft) 93,88 %
09.01.2020 14:30 12,3 C 11,7 C 10,6 C 96 % 1011,8 hPa 0,0 l/m 0 min 0 min 42 W/m 19,3 km/h (3 Bft) 95,74 %
09.01.2020 14:32 12,3 C 12,2 C 10,6 C 96 % 1011,9 hPa 0,0 l/m 0 min 0 min 46 W/m 16,1 km/h (3 Bft) 95,74 %
09.01.2020 14:34 12,4 C 12,2 C 10,6 C 96 % 1011,9 hPa 0,0 l/m 0 min 0 min 49 W/m 22,5 km/h (4 Bft) 94,59 %
09.01.2020 14:36 12,4 C 12,2 C 10,6 C 96 % 1011,8 hPa 0,0 l/m 0 min 0 min 49 W/m 22,5 km/h (4 Bft) 93,62 %
09.01.2020 14:38 12,4 C 12,2 C 10,6 C 96 % 1011,8 hPa 0,0 l/m 0 min 0 min 47 W/m 19,3 km/h (3 Bft) 97,87 %
09.01.2020 14:40 12,4 C 12,2 C 10,6 C 96 % 1011,9 hPa 0,0 l/m 0 min 0 min 48 W/m 16,1 km/h (3 Bft) 95,74 %
09.01.2020 14:42 12,4 C 12,2 C 10,6 C 96 % 1011,8 hPa 0,0 l/m 0 min 0 min 34 W/m 16,1 km/h (3 Bft) 95,65 %
09.01.2020 14:44 12,5 C 12,2 C 10,6 C 96 % 1011,8 hPa 0,0 l/m 0 min 0 min 25 W/m 29,0 km/h (5 Bft) 95,74 %
09.01.2020 14:46 12,5 C 12,2 C 10,6 C 96 % 1011,7 hPa 0,0 l/m 0 min 0 min 22 W/m 12,9 km/h (3 Bft) 95,74 %
09.01.2020 14:48 12,5 C 12,2 C 10,6 C 95 % 1011,8 hPa 0,0 l/m 0 min 0 min 24 W/m 16,1 km/h (3 Bft) 95,74 %
09.01.2020 14:50 12,6 C 12,2 C 10,6 C 95 % 1011,6 hPa 0,0 l/m 0 min 0 min 25 W/m 22,5 km/h (4 Bft) 95,74 %
09.01.2020 14:52 12,6 C 12,2 C 10,6 C 95 % 1011,6 hPa 0,0 l/m 0 min 0 min 24 W/m 16,1 km/h (3 Bft) 97,83 %
09.01.2020 14:54 12,6 C 12,2 C 10,6 C 95 % 1011,6 hPa 0,0 l/m 0 min 0 min 24 W/m 19,3 km/h (3 Bft) 95,74 %
09.01.2020 14:56 12,6 C 12,2 C 10,6 C 95 % 1011,6 hPa 0,0 l/m 0 min 0 min 23 W/m 22,5 km/h (4 Bft) 95,74 %
09.01.2020 14:58 12,6 C 12,2 C 10,6 C 95 % 1011,6 hPa 0,0 l/m 0 min 0 min 21 W/m 16,1 km/h (3 Bft) 92,59 %
09.01.2020 15:00 12,6 C 12,2 C 10,6 C 95 % 1011,6 hPa 0,0 l/m 0 min 0 min 19 W/m 19,3 km/h (3 Bft) 93,62 %
09.01.2020 15:02 12,6 C 12,2 C 11,1 C 95 % 1011,6 hPa 0,0 l/m 0 min 0 min 18 W/m 16,1 km/h (3 Bft) 93,62 %
09.01.2020 15:04 12,6 C 12,2 C 11,1 C 95 % 1011,6 hPa 0,0 l/m 0 min 0 min 19 W/m 22,5 km/h (4 Bft) 91,84 %
09.01.2020 15:06 12,6 C 12,2 C 11,1 C 95 % 1011,6 hPa 0,0 l/m 0 min 0 min 19 W/m 16,1 km/h (3 Bft) 94,59 %
09.01.2020 15:08 12,6 C 12,2 C 11,1 C 95 % 1011,6 hPa 0,0 l/m 0 min 0 min 21 W/m 16,1 km/h (3 Bft) 95,74 %
09.01.2020 15:10 12,7 C 12,2 C 11,1 C 95 % 1011,5 hPa 0,0 l/m 0 min 0 min 24 W/m 22,5 km/h (4 Bft) 97,87 %
09.01.2020 15:12 12,7 C 12,2 C 11,7 C 95 % 1011,5 hPa 0,0 l/m 0 min 0 min 30 W/m 19,3 km/h (3 Bft) 97,87 %
09.01.2020 15:14 12,7 C 12,2 C 11,7 C 95 % 1011,4 hPa 0,0 l/m 0 min 0 min 35 W/m 29,0 km/h (5 Bft) 95,74 %
09.01.2020 15:16 12,7 C 12,2 C 11,7 C 95 % 1011,4 hPa 0,0 l/m 0 min 0 min 31 W/m 29,0 km/h (5 Bft) 97,83 %
09.01.2020 15:18 12,7 C 12,2 C 11,7 C 95 % 1011,3 hPa 0,0 l/m 0 min 0 min 32 W/m 16,1 km/h (3 Bft) 97,87 %
09.01.2020 15:20 12,7 C 12,2 C 11,7 C 95 % 1011,3 hPa 0,0 l/m 0 min 0 min 38 W/m 22,5 km/h (4 Bft) 95,74 %
09.01.2020 15:22 12,7 C 12,2 C 11,7 C 94 % 1011,3 hPa 0,0 l/m 0 min 0 min 34 W/m 22,5 km/h (4 Bft) 97,87 %
09.01.2020 15:24 12,7 C 12,2 C 11,7 C 94 % 1011,4 hPa 0,0 l/m 0 min 0 min 26 W/m 25,7 km/h (4 Bft) 98,15 %
09.01.2020 15:26 12,8 C 12,2 C 11,7 C 94 % 1011,3 hPa 0,0 l/m 0 min 0 min 23 W/m 25,7 km/h (4 Bft) 95,74 %
09.01.2020 15:28 12,8 C 12,2 C 11,7 C 94 % 1011,3 hPa 0,0 l/m 0 min 0 min 21 W/m 25,7 km/h (4 Bft) 97,96 %
09.01.2020 15:30 12,8 C 12,2 C 11,7 C 94 % 1011,4 hPa 0,0 l/m 0 min 0 min 19 W/m 16,1 km/h (3 Bft) 97,87 %
09.01.2020 15:32 12,8 C 12,2 C 11,7 C 94 % 1011,4 hPa 0,0 l/m 0 min 0 min 18 W/m 22,5 km/h (4 Bft) 97,87 %
09.01.2020 15:34 12,8 C 12,2 C 11,7 C 94 % 1011,4 hPa 0,0 l/m 0 min 0 min 19 W/m 29,0 km/h (5 Bft) 100,00 %
09.01.2020 15:36 12,8 C 12,2 C 11,7 C 94 % 1011,4 hPa 0,0 l/m 0 min 0 min 19 W/m 16,1 km/h (3 Bft) 100,00 %
09.01.2020 15:38 12,8 C 12,2 C 11,7 C 94 % 1011,4 hPa 0,0 l/m 0 min 0 min 18 W/m 16,1 km/h (3 Bft) 100,00 %
09.01.2020 15:40 12,8 C 12,2 C 11,7 C 94 % 1011,4 hPa 0,0 l/m 0 min 0 min 16 W/m 32,2 km/h (5 Bft) 97,83 %
09.01.2020 15:42 12,8 C 12,2 C 11,7 C 93 % 1011,3 hPa 0,0 l/m 0 min 0 min 15 W/m 29,0 km/h (5 Bft) 100,00 %
09.01.2020 15:44 12,9 C 12,2 C 11,7 C 93 % 1011,4 hPa 0,0 l/m 0 min 0 min 16 W/m 29,0 km/h (5 Bft) 100,00 %
09.01.2020 15:46 12,9 C 12,2 C 11,7 C 93 % 1011,3 hPa 0,0 l/m 0 min 0 min 16 W/m 22,5 km/h (4 Bft) 97,87 %
09.01.2020 15:48 12,9 C 12,2 C 11,7 C 93 % 1011,3 hPa 0,0 l/m 0 min 0 min 18 W/m 19,3 km/h (3 Bft) 100,00 %
09.01.2020 15:50 12,9 C 12,2 C 11,7 C 93 % 1011,3 hPa 0,0 l/m 0 min 0 min 23 W/m 29,0 km/h (5 Bft) 100,00 %
09.01.2020 15:52 12,9 C 12,2 C 11,7 C 93 % 1011,3 hPa 0,0 l/m 0 min 0 min 24 W/m 16,1 km/h (3 Bft) 100,00 %
09.01.2020 15:54 12,9 C 12,2 C 11,7 C 93 % 1011,3 hPa 0,0 l/m 0 min 0 min 25 W/m 22,5 km/h (4 Bft) 100,00 %
09.01.2020 15:56 12,9 C 12,2 C 11,7 C 93 % 1011,4 hPa 0,0 l/m 0 min 0 min 22 W/m 22,5 km/h (4 Bft) 100,00 %
09.01.2020 15:58 12,9 C 12,2 C 11,7 C 93 % 1011,3 hPa 0,0 l/m 0 min 0 min 19 W/m 22,5 km/h (4 Bft) 91,49 %
09.01.2020 16:00 12,9 C 12,2 C 11,7 C 92 % 1011,3 hPa 0,0 l/m 0 min 0 min 17 W/m 19,3 km/h (3 Bft) 46,67 %
09.01.2020 16:02 12,9 C 12,2 C 11,7 C 92 % 1011,3 hPa 0,0 l/m 0 min 0 min 16 W/m 16,1 km/h (3 Bft) 100,00 %
09.01.2020 16:04 12,9 C 12,2 C 11,7 C 92 % 1011,3 hPa 0,0 l/m 0 min 0 min 14 W/m 16,1 km/h (3 Bft) 97,83 %
09.01.2020 16:06 13,0 C 12,2 C 11,7 C 92 % 1011,2 hPa 0,0 l/m 0 min 0 min 12 W/m 25,7 km/h (4 Bft) 100,00 %
09.01.2020 16:08 12,9 C 12,2 C 11,7 C 92 % 1011,3 hPa 0,0 l/m 0 min 0 min 12 W/m 32,2 km/h (5 Bft) 100,00 %
09.01.2020 16:10 12,9 C 12,2 C 11,7 C 92 % 1011,3 hPa 0,0 l/m 0 min 0 min 12 W/m 29,0 km/h (5 Bft) 100,00 %
09.01.2020 16:12 13,0 C 12,2 C 11,7 C 92 % 1011,3 hPa 0,0 l/m 0 min 0 min 11 W/m 22,5 km/h (4 Bft) 100,00 %
09.01.2020 16:14 13,0 C 12,2 C 11,7 C 92 % 1011,3 hPa 0,0 l/m 0 min 0 min 11 W/m 32,2 km/h (5 Bft) 100,00 %
09.01.2020 16:16 13,0 C 12,2 C 11,7 C 92 % 1011,2 hPa 0,0 l/m 0 min 0 min 11 W/m 22,5 km/h (4 Bft) 97,87 %
09.01.2020 16:18 13,0 C 12,2 C 11,7 C 92 % 1011,2 hPa 0,0 l/m 0 min 0 min 9 W/m 29,0 km/h (5 Bft) 97,87 %
09.01.2020 16:20 13,0 C 12,2 C 11,7 C 92 % 1011,2 hPa 0,0 l/m 0 min 0 min 7 W/m 19,3 km/h (3 Bft) 100,00 %
09.01.2020 16:22 13,0 C 12,2 C 11,7 C 92 % 1011,2 hPa 0,0 l/m 0 min 0 min 7 W/m 16,1 km/h (3 Bft) 100,00 %
09.01.2020 16:24 13,0 C 12,2 C 11,7 C 92 % 1011,1 hPa 0,0 l/m 0 min 0 min 7 W/m 25,7 km/h (4 Bft) 100,00 %
09.01.2020 16:26 13,0 C 12,2 C 11,7 C 91 % 1011,1 hPa 0,0 l/m 0 min 0 min 6 W/m 32,2 km/h (5 Bft) 97,83 %
09.01.2020 16:28 13,0 C 12,2 C 11,7 C 91 % 1011,1 hPa 0,0 l/m 0 min 0 min 7 W/m 29,0 km/h (5 Bft) 95,74 %
09.01.2020 16:30 13,0 C 12,2 C 11,7 C 91 % 1011,0 hPa 0,0 l/m 0 min 0 min 6 W/m 29,0 km/h (5 Bft) 100,00 %
09.01.2020 16:32 13,0 C 12,2 C 11,7 C 91 % 1011,1 hPa 0,0 l/m 0 min 0 min 7 W/m 22,5 km/h (4 Bft) 95,74 %
09.01.2020 16:34 13,1 C 12,2 C 11,7 C 91 % 1011,1 hPa 0,0 l/m 0 min 0 min 5 W/m 32,2 km/h (5 Bft) 97,87 %
09.01.2020 16:36 13,1 C 12,2 C 11,7 C 91 % 1011,1 hPa 0,0 l/m 0 min 0 min 2 W/m 22,5 km/h (4 Bft) 97,87 %
09.01.2020 16:38 13,1 C 12,2 C 11,7 C 91 % 1011,1 hPa 0,0 l/m 0 min 0 min 0 W/m 32,2 km/h (5 Bft) 97,83 %
09.01.2020 16:40 13,1 C 12,2 C 11,7 C 91 % 1011,1 hPa 0,0 l/m 0 min 0 min 0 W/m 29,0 km/h (5 Bft) 97,87 %
09.01.2020 16:42 13,1 C 12,2 C 11,7 C 91 % 1011,0 hPa 0,0 l/m 0 min 0 min 0 W/m 25,7 km/h (4 Bft) 98,15 %
09.01.2020 16:44 13,1 C 12,2 C 11,7 C 91 % 1011,0 hPa 0,0 l/m 0 min 0 min 0 W/m 32,2 km/h (5 Bft) 97,87 %
09.01.2020 16:46 13,1 C 12,2 C 11,7 C 91 % 1011,0 hPa 0,0 l/m 0 min 0 min 0 W/m 25,7 km/h (4 Bft) 90,00 %
09.01.2020 16:48 13,1 C 12,2 C 11,7 C 91 % 1011,0 hPa 0,0 l/m 0 min 0 min 0 W/m 29,0 km/h (5 Bft) 97,30 %
09.01.2020 16:50 13,1 C 12,2 C 11,7 C 91 % 1011,0 hPa 0,0 l/m 0 min 0 min 0 W/m 22,5 km/h (4 Bft) 97,83 %
09.01.2020 16:52 13,1 C 12,2 C 11,7 C 91 % 1011,0 hPa 0,0 l/m 0 min 0 min 0 W/m 16,1 km/h (3 Bft) 97,87 %
09.01.2020 16:54 13,1 C 12,2 C 11,7 C 91 % 1011,0 hPa 0,0 l/m 0 min 0 min 0 W/m 25,7 km/h (4 Bft) 97,87 %
09.01.2020 16:56 13,1 C 12,2 C 11,7 C 91 % 1011,0 hPa 0,0 l/m 0 min 0 min 0 W/m 25,7 km/h (4 Bft) 97,87 %
09.01.2020 16:58 13,1 C 12,2 C 11,7 C 91 % 1011,0 hPa 0,0 l/m 0 min 0 min 0 W/m 29,0 km/h (5 Bft) 93,62 %
09.01.2020 17:00 13,1 C 12,2 C 11,7 C 91 % 1011,0 hPa 0,0 l/m 0 min 0 min 0 W/m 22,5 km/h (4 Bft) 97,83 %
09.01.2020 17:02 13,1 C 12,2 C 11,7 C 91 % 1011,0 hPa 0,0 l/m 0 min 0 min 0 W/m 16,1 km/h (3 Bft) 98,15 %
09.01.2020 17:04 13,1 C 12,2 C 11,7 C 91 % 1011,1 hPa 0,0 l/m 0 min 0 min 0 W/m 22,5 km/h (4 Bft) 96,00 %
09.01.2020 17:06 13,1 C 12,2 C 11,7 C 91 % 1011,0 hPa 0,0 l/m 0 min 0 min 0 W/m 16,1 km/h (3 Bft) 97,30 %
09.01.2020 17:08 13,1 C 12,2 C 11,7 C 91 % 1011,1 hPa 0,0 l/m 0 min 0 min 0 W/m 6,4 km/h (2 Bft) 100,00 %
09.01.2020 17:10 13,1 C 12,2 C 11,7 C 91 % 1011,1 hPa 0,0 l/m 0 min 0 min 0 W/m 16,1 km/h (3 Bft) 100,00 %
09.01.2020 17:12 13,1 C 12,2 C 11,7 C 91 % 1011,0 hPa 0,0 l/m 0 min 0 min 0 W/m 32,2 km/h (5 Bft) 100,00 %
09.01.2020 17:14 13,1 C 12,2 C 11,7 C 91 % 1011,1 hPa 0,0 l/m 0 min 0 min 0 W/m 19,3 km/h (3 Bft) 95,65 %
09.01.2020 17:16 13,1 C 12,2 C 11,7 C 91 % 1011,0 hPa 0,0 l/m 0 min 0 min 0 W/m 12,9 km/h (3 Bft) 98,15 %
09.01.2020 17:18 13,1 C 12,2 C 11,7 C 91 % 1011,1 hPa 0,0 l/m 0 min 0 min 0 W/m 12,9 km/h (3 Bft) 97,87 %
09.01.2020 17:20 13,0 C 12,2 C 11,7 C 91 % 1011,0 hPa 0,0 l/m 0 min 0 min 0 W/m 16,1 km/h (3 Bft) 97,87 %
09.01.2020 17:22 13,0 C 12,2 C 11,7 C 91 % 1011,0 hPa 0,0 l/m 0 min 0 min 0 W/m 0,0 km/h (0 Bft) 97,87 %
09.01.2020 17:24 13,0 C 12,2 C 11,7 C 91 % 1010,9 hPa 0,0 l/m 0 min 0 min 0 W/m 6,4 km/h (2 Bft) 97,96 %
09.01.2020 17:26 13,0 C 12,2 C 11,7 C 91 % 1011,0 hPa 0,0 l/m 0 min 0 min 0 W/m 16,1 km/h (3 Bft) 97,30 %
09.01.2020 17:28 13,0 C 12,2 C 11,7 C 91 % 1010,9 hPa 0,0 l/m 0 min 0 min 0 W/m 12,9 km/h (3 Bft) 95,74 %
09.01.2020 17:30 13,0 C 12,2 C 11,7 C 91 % 1010,9 hPa 0,0 l/m 0 min 0 min 0 W/m 25,7 km/h (4 Bft) 95,74 %
09.01.2020 17:32 13,0 C 12,2 C 11,7 C 91 % 1010,9 hPa 0,0 l/m 0 min 0 min 0 W/m 25,7 km/h (4 Bft) 95,74 %
09.01.2020 17:34 13,0 C 12,2 C 11,7 C 91 % 1010,9 hPa 0,0 l/m 0 min 0 min 0 W/m 16,1 km/h (3 Bft) 95,74 %
09.01.2020 17:36 13,0 C 12,2 C 11,7 C 91 % 1010,9 hPa 0,0 l/m 0 min 0 min 0 W/m 29,0 km/h (5 Bft) 97,83 %
09.01.2020 17:38 13,0 C 12,2 C 11,7 C 91 % 1010,9 hPa 0,0 l/m 0 min 0 min 0 W/m 29,0 km/h (5 Bft) 97,87 %
09.01.2020 17:40 13,0 C 12,2 C 11,7 C 91 % 1011,0 hPa 0,0 l/m 0 min 0 min 0 W/m 12,9 km/h (3 Bft) 97,87 %
09.01.2020 17:42 13,0 C 12,2 C 11,7 C 91 % 1010,9 hPa 0,0 l/m 0 min 0 min 0 W/m 16,1 km/h (3 Bft) 95,74 %
09.01.2020 17:44 13,0 C 12,2 C 11,7 C 91 % 1010,9 hPa 0,0 l/m 0 min 0 min 0 W/m 16,1 km/h (3 Bft) 93,62 %
09.01.2020 17:46 13,0 C 12,2 C 11,7 C 91 % 1011,0 hPa 0,0 l/m 0 min 0 min 0 W/m 25,7 km/h (4 Bft) 93,62 %
09.01.2020 17:48 13,0 C 12,2 C 11,7 C 91 % 1010,9 hPa 0,0 l/m 0 min 0 min 0 W/m 12,9 km/h (3 Bft) 97,83 %
09.01.2020 17:50 13,0 C 12,2 C 11,7 C 91 % 1010,9 hPa 0,0 l/m 0 min 0 min 0 W/m 16,1 km/h (3 Bft) 96,30 %
09.01.2020 17:52 12,9 C 12,2 C 11,7 C 91 % 1010,9 hPa 0,0 l/m 0 min 0 min 0 W/m 25,7 km/h (4 Bft) 95,74 %
09.01.2020 17:54 13,0 C 12,2 C 11,7 C 91 % 1010,9 hPa 0,0 l/m 0 min 0 min 0 W/m 22,5 km/h (4 Bft) 95,74 %
09.01.2020 17:56 13,0 C 12,2 C 11,7 C 91 % 1010,9 hPa 0,0 l/m 0 min 0 min 0 W/m 19,3 km/h (3 Bft) 96,00 %
09.01.2020 17:58 13,0 C 12,2 C 11,7 C 91 % 1010,9 hPa 0,0 l/m 0 min 0 min 0 W/m 16,1 km/h (3 Bft) 95,65 %
09.01.2020 18:00 13,0 C 12,2 C 11,7 C 91 % 1010,9 hPa 0,0 l/m 0 min 0 min 0 W/m 16,1 km/h (3 Bft) 91,89 %
09.01.2020 18:02 13,0 C 12,2 C 11,7 C 91 % 1010,9 hPa 0,0 l/m 0 min 0 min 0 W/m 0,0 km/h (0 Bft) 95,83 %
09.01.2020 18:04 13,0 C 12,2 C 11,7 C 91 % 1010,9 hPa 0,0 l/m 0 min 0 min 0 W/m 22,5 km/h (4 Bft) 95,92 %
09.01.2020 18:06 13,0 C 12,2 C 11,7 C 91 % 1010,9 hPa 0,0 l/m 0 min 0 min 0 W/m 19,3 km/h (3 Bft) 97,87 %
09.01.2020 18:08 12,9 C 12,2 C 11,7 C 91 % 1010,9 hPa 0,0 l/m 0 min 0 min 0 W/m 22,5 km/h (4 Bft) 97,87 %
09.01.2020 18:10 12,9 C 12,2 C 11,7 C 91 % 1010,9 hPa 0,0 l/m 0 min 0 min 0 W/m 19,3 km/h (3 Bft) 97,83 %
09.01.2020 18:12 12,9 C 12,2 C 11,7 C 91 % 1010,9 hPa 0,0 l/m 0 min 0 min 0 W/m 29,0 km/h (5 Bft) 97,87 %
09.01.2020 18:14 12,9 C 12,2 C 11,7 C 91 % 1010,9 hPa 0,0 l/m 0 min 0 min 0 W/m 12,9 km/h (3 Bft) 95,74 %
09.01.2020 18:16 12,9 C 12,2 C 11,7 C 91 % 1010,8 hPa 0,0 l/m 0 min 0 min 0 W/m 19,3 km/h (3 Bft) 91,49 %
09.01.2020 18:18 13,0 C 12,2 C 11,7 C 91 % 1010,9 hPa 0,0 l/m 0 min 0 min 0 W/m 19,3 km/h (3 Bft) 95,74 %
09.01.2020 18:20 13,0 C 12,2 C 11,7 C 91 % 1010,9 hPa 0,0 l/m 0 min 0 min 0 W/m 0,0 km/h (0 Bft) 97,87 %
09.01.2020 18:22 12,9 C 12,2 C 11,7 C 91 % 1010,9 hPa 0,0 l/m 0 min 0 min 0 W/m 19,3 km/h (3 Bft) 97,83 %
09.01.2020 18:24 12,9 C 12,2 C 11,7 C 91 % 1010,9 hPa 0,0 l/m 0 min 0 min 0 W/m 19,3 km/h (3 Bft) 95,74 %
09.01.2020 18:26 12,9 C 12,2 C 11,7 C 91 % 1010,9 hPa 0,0 l/m 0 min 0 min 0 W/m 19,3 km/h (3 Bft) 97,87 %
09.01.2020 18:28 12,9 C 12,2 C 11,7 C 91 % 1010,9 hPa 0,0 l/m 0 min 0 min 0 W/m 16,1 km/h (3 Bft) 95,74 %
09.01.2020 18:30 12,9 C 12,2 C 11,7 C 91 % 1010,9 hPa 0,0 l/m 0 min 0 min 0 W/m 22,5 km/h (4 Bft) 97,87 %
09.01.2020 18:32 12,9 C 12,2 C 11,7 C 91 % 1010,9 hPa 0,0 l/m 0 min 0 min 0 W/m 16,1 km/h (3 Bft) 97,87 %
09.01.2020 18:34 12,9 C 12,2 C 11,7 C 91 % 1010,9 hPa 0,0 l/m 0 min 0 min 0 W/m 25,7 km/h (4 Bft) 98,15 %
09.01.2020 18:36 12,9 C 12,2 C 11,7 C 91 % 1010,9 hPa 0,0 l/m 0 min 0 min 0 W/m 16,1 km/h (3 Bft) 100,00 %
09.01.2020 18:38 12,9 C 12,2 C 11,7 C 91 % 1010,9 hPa 0,0 l/m 0 min 0 min 0 W/m 19,3 km/h (3 Bft) 100,00 %
09.01.2020 18:40 12,9 C 12,2 C 11,7 C 91 % 1011,0 hPa 0,0 l/m 0 min 0 min 0 W/m 19,3 km/h (3 Bft) 100,00 %
09.01.2020 18:42 12,9 C 12,2 C 11,7 C 91 % 1011,0 hPa 0,0 l/m 0 min 0 min 0 W/m 16,1 km/h (3 Bft) 95,74 %
09.01.2020 18:44 12,9 C 12,2 C 11,7 C 91 % 1011,0 hPa 0,0 l/m 0 min 0 min 0 W/m 22,5 km/h (4 Bft) 100,00 %
09.01.2020 18:46 12,9 C 12,2 C 11,7 C 91 % 1011,0 hPa 0,0 l/m 0 min 0 min 0 W/m 6,4 km/h (2 Bft) 97,83 %
09.01.2020 18:48 12,9 C 12,2 C 11,7 C 91 % 1010,9 hPa 0,0 l/m 0 min 0 min 0 W/m 22,5 km/h (4 Bft) 100,00 %
09.01.2020 18:50 12,9 C 12,2 C 11,7 C 91 % 1010,9 hPa 0,0 l/m 0 min 0 min 0 W/m 19,3 km/h (3 Bft) 100,00 %
09.01.2020 18:52 12,9 C 12,2 C 11,7 C 91 % 1010,9 hPa 0,0 l/m 0 min 0 min 0 W/m 19,3 km/h (3 Bft) 100,00 %
09.01.2020 18:54 12,9 C 12,2 C 11,7 C 91 % 1010,9 hPa 0,0 l/m 0 min 0 min 0 W/m 22,5 km/h (4 Bft) 95,74 %
09.01.2020 18:56 12,9 C 12,2 C 11,7 C 91 % 1010,9 hPa 0,0 l/m 0 min 0 min 0 W/m 19,3 km/h (3 Bft) 97,87 %
09.01.2020 18:58 12,8 C 12,2 C 11,7 C 91 % 1011,0 hPa 0,0 l/m 0 min 0 min 0 W/m 16,1 km/h (3 Bft) 97,83 %
09.01.2020 19:00 12,8 C 12,2 C 11,7 C 91 % 1010,9 hPa 0,0 l/m 0 min 0 min 0 W/m 19,3 km/h (3 Bft) 98,18 %
09.01.2020 19:02 12,9 C 12,2 C 11,7 C 91 % 1011,0 hPa 0,0 l/m 0 min 0 min 0 W/m 22,5 km/h (4 Bft) 97,87 %
09.01.2020 19:04 12,8 C 12,2 C 11,7 C 91 % 1010,9 hPa 0,0 l/m 0 min 0 min 0 W/m 19,3 km/h (3 Bft) 95,74 %
09.01.2020 19:06 12,8 C 12,2 C 11,7 C 91 % 1010,9 hPa 0,0 l/m 0 min 0 min 0 W/m 25,7 km/h (4 Bft) 97,37 %
09.01.2020 19:08 12,8 C 12,2 C 11,7 C 91 % 1010,9 hPa 0,0 l/m 0 min 0 min 0 W/m 25,7 km/h (4 Bft) 97,87 %
09.01.2020 19:10 12,8 C 12,2 C 11,7 C 91 % 1010,9 hPa 0,0 l/m 0 min 0 min 0 W/m 25,7 km/h (4 Bft) 97,87 %
09.01.2020 19:12 12,8 C 12,2 C 11,7 C 91 % 1010,8 hPa 0,0 l/m 0 min 0 min 0 W/m 25,7 km/h (4 Bft) 97,87 %
09.01.2020 19:14 12,8 C 12,2 C 11,7 C 91 % 1010,8 hPa 0,0 l/m 0 min 0 min 0 W/m 29,0 km/h (5 Bft) 97,87 %
09.01.2020 19:16 12,8 C 12,2 C 11,7 C 91 % 1010,8 hPa 0,0 l/m 0 min 0 min 0 W/m 25,7 km/h (4 Bft) 97,87 %
09.01.2020 19:18 12,8 C 12,2 C 11,7 C 91 % 1010,8 hPa 0,0 l/m 0 min 0 min 0 W/m 29,0 km/h (5 Bft) 96,30 %
09.01.2020 19:20 12,8 C 12,2 C 11,7 C 91 % 1010,8 hPa 0,0 l/m 0 min 0 min 0 W/m 25,7 km/h (4 Bft) 97,44 %
09.01.2020 19:22 12,8 C 12,2 C 11,7 C 91 % 1010,8 hPa 0,0 l/m 0 min 0 min 0 W/m 22,5 km/h (4 Bft) 97,83 %
09.01.2020 19:24 12,8 C 12,2 C 11,7 C 91 % 1010,8 hPa 0,0 l/m 0 min 0 min 0 W/m 25,7 km/h (4 Bft) 95,74 %
09.01.2020 19:26 12,8 C 12,2 C 11,7 C 91 % 1010,7 hPa 0,0 l/m 0 min 0 min 0 W/m 19,3 km/h (3 Bft) 97,92 %
09.01.2020 19:28 12,8 C 12,2 C 11,7 C 91 % 1010,6 hPa 0,0 l/m 0 min 0 min 0 W/m 16,1 km/h (3 Bft) 97,87 %
09.01.2020 19:30 12,8 C 12,2 C 11,7 C 91 % 1010,6 hPa 0,0 l/m 0 min 0 min 0 W/m 12,9 km/h (3 Bft) 97,87 %
09.01.2020 19:32 12,8 C 12,2 C 11,7 C 91 % 1010,6 hPa 0,0 l/m 0 min 0 min 0 W/m 12,9 km/h (3 Bft) 97,83 %
09.01.2020 19:34 12,8 C 12,2 C 11,7 C 91 % 1010,6 hPa 0,0 l/m 0 min 0 min 0 W/m 16,1 km/h (3 Bft) 100,00 %
09.01.2020 19:36 12,8 C 12,2 C 11,1 C 91 % 1010,6 hPa 0,0 l/m 0 min 0 min 0 W/m 19,3 km/h (3 Bft) 100,00 %
09.01.2020 19:38 12,8 C 12,2 C 11,1 C 91 % 1010,5 hPa 0,0 l/m 0 min 0 min 0 W/m 12,9 km/h (3 Bft) 100,00 %
09.01.2020 19:40 12,8 C 12,2 C 11,1 C 91 % 1010,6 hPa 0,0 l/m 0 min 0 min 0 W/m 16,1 km/h (3 Bft) 100,00 %
09.01.2020 19:42 12,8 C 12,2 C 11,7 C 91 % 1010,5 hPa 0,0 l/m 0 min 0 min 0 W/m 19,3 km/h (3 Bft) 100,00 %
09.01.2020 19:44 12,8 C 12,2 C 11,7 C 91 % 1010,4 hPa 0,0 l/m 0 min 0 min 0 W/m 16,1 km/h (3 Bft) 100,00 %
09.01.2020 19:46 12,8 C 12,2 C 11,1 C 91 % 1010,4 hPa 0,0 l/m 0 min 0 min 0 W/m 19,3 km/h (3 Bft) 100,00 %
09.01.2020 19:48 12,8 C 12,2 C 11,1 C 91 % 1010,4 hPa 0,0 l/m 0 min 0 min 0 W/m 16,1 km/h (3 Bft) 100,00 %
09.01.2020 19:50 12,8 C 12,2 C 11,1 C 91 % 1010,5 hPa 0,0 l/m 0 min 0 min 0 W/m 12,9 km/h (3 Bft) 100,00 %
09.01.2020 19:52 12,7 C 12,2 C 11,1 C 91 % 1010,5 hPa 0,0 l/m 0 min 0 min 0 W/m 12,9 km/h (3 Bft) 100,00 %
09.01.2020 19:54 12,7 C 12,2 C 11,1 C 91 % 1010,4 hPa 0,0 l/m 0 min 0 min 0 W/m 16,1 km/h (3 Bft) 100,00 %
09.01.2020 19:56 12,7 C 12,2 C 11,1 C 91 % 1010,4 hPa 0,0 l/m 0 min 0 min 0 W/m 12,9 km/h (3 Bft) 100,00 %
09.01.2020 19:58 12,7 C 12,2 C 11,1 C 91 % 1010,5 hPa 0,0 l/m 0 min 0 min 0 W/m 22,5 km/h (4 Bft) 100,00 %
09.01.2020 20:00 12,7 C 12,2 C 11,1 C 91 % 1010,5 hPa 0,0 l/m 0 min 0 min 0 W/m 19,3 km/h (3 Bft) 100,00 %
09.01.2020 20:02 12,7 C 12,2 C 11,1 C 91 % 1010,5 hPa 0,0 l/m 0 min 0 min 0 W/m 19,3 km/h (3 Bft) 100,00 %
09.01.2020 20:04 12,7 C 12,2 C 11,1 C 91 % 1010,5 hPa 0,0 l/m 0 min 0 min 0 W/m 22,5 km/h (4 Bft) 96,36 %
09.01.2020 20:06 12,7 C 12,2 C 11,7 C 90 % 1010,5 hPa 0,0 l/m 0 min 0 min 0 W/m 16,1 km/h (3 Bft) 97,83 %
09.01.2020 20:08 12,7 C 12,2 C 11,7 C 90 % 1010,5 hPa 0,0 l/m 0 min 0 min 0 W/m 3,2 km/h (1 Bft) 100,00 %
09.01.2020 20:10 12,7 C 12,2 C 11,1 C 90 % 1010,6 hPa 0,0 l/m 0 min 0 min 0 W/m 12,9 km/h (3 Bft) 100,00 %
09.01.2020 20:12 12,7 C 12,2 C 11,1 C 90 % 1010,6 hPa 0,0 l/m 0 min 0 min 0 W/m 22,5 km/h (4 Bft) 100,00 %
09.01.2020 20:14 12,7 C 12,2 C 11,1 C 90 % 1010,6 hPa 0,0 l/m 0 min 0 min 0 W/m 12,9 km/h (3 Bft) 100,00 %
09.01.2020 20:16 12,7 C 12,2 C 11,1 C 90 % 1010,6 hPa 0,0 l/m 0 min 0 min 0 W/m 16,1 km/h (3 Bft) 98,15 %
09.01.2020 20:18 12,7 C 12,2 C 11,1 C 90 % 1010,5 hPa 0,0 l/m 0 min 0 min 0 W/m 22,5 km/h (4 Bft) 100,00 %
09.01.2020 20:20 12,7 C 12,2 C 11,1 C 90 % 1010,5 hPa 0,0 l/m 0 min 0 min 0 W/m 12,9 km/h (3 Bft) 97,87 %
09.01.2020 20:22 12,7 C 12,2 C 11,1 C 90 % 1010,5 hPa 0,0 l/m 0 min 0 min 0 W/m 12,9 km/h (3 Bft) 95,74 %
09.01.2020 20:24 12,7 C 12,2 C 11,1 C 90 % 1010,5 hPa 0,0 l/m 0 min 0 min 0 W/m 19,3 km/h (3 Bft) 98,18 %
09.01.2020 20:26 12,7 C 12,2 C 11,1 C 90 % 1010,6 hPa 0,0 l/m 0 min 0 min 0 W/m 19,3 km/h (3 Bft) 94,74 %
09.01.2020 20:28 12,7 C 12,2 C 11,1 C 90 % 1010,6 hPa 0,0 l/m 0 min 0 min 0 W/m 22,5 km/h (4 Bft) 95,83 %
09.01.2020 20:30 12,7 C 12,2 C 11,1 C 90 % 1010,6 hPa 0,0 l/m 0 min 0 min 0 W/m 16,1 km/h (3 Bft) 97,87 %
09.01.2020 20:32 12,7 C 12,2 C 11,1 C 90 % 1010,5 hPa 0,0 l/m 0 min 0 min 0 W/m 16,1 km/h (3 Bft) 96,30 %
09.01.2020 20:34 12,7 C 11,7 C 11,1 C 90 % 1010,5 hPa 0,0 l/m 0 min 0 min 0 W/m 16,1 km/h (3 Bft) 97,37 %
09.01.2020 20:36 12,7 C 11,7 C 11,1 C 90 % 1010,4 hPa 0,0 l/m 0 min 0 min 0 W/m 12,9 km/h (3 Bft) 95,83 %
09.01.2020 20:38 12,7 C 11,7 C 11,1 C 90 % 1010,4 hPa 0,0 l/m 0 min 0 min 0 W/m 19,3 km/h (3 Bft) 97,87 %
09.01.2020 20:40 12,6 C 11,7 C 11,1 C 90 % 1010,3 hPa 0,0 l/m 0 min 0 min 0 W/m 19,3 km/h (3 Bft) 97,87 %
09.01.2020 20:42 12,6 C 11,7 C 11,1 C 90 % 1010,3 hPa 0,0 l/m 0 min 0 min 0 W/m 19,3 km/h (3 Bft) 96,30 %
09.01.2020 20:44 12,6 C 11,7 C 11,1 C 90 % 1010,4 hPa 0,0 l/m 0 min 0 min 0 W/m 16,1 km/h (3 Bft) 94,74 %
09.01.2020 20:46 12,6 C 11,7 C 11,1 C 90 % 1010,3 hPa 0,0 l/m 0 min 0 min 0 W/m 12,9 km/h (3 Bft) 97,92 %
09.01.2020 20:48 12,6 C 11,7 C 11,1 C 90 % 1010,3 hPa 0,0 l/m 0 min 0 min 0 W/m 12,9 km/h (3 Bft) 95,74 %
09.01.2020 20:50 12,6 C 11,7 C 11,1 C 90 % 1010,3 hPa 0,0 l/m 0 min 0 min 0 W/m 19,3 km/h (3 Bft) 94,55 %
09.01.2020 20:52 12,6 C 12,2 C 11,1 C 90 % 1010,4 hPa 0,0 l/m 0 min 0 min 0 W/m 29,0 km/h (5 Bft) 94,74 %
09.01.2020 20:54 12,6 C 12,2 C 11,1 C 90 % 1010,4 hPa 0,0 l/m 0 min 0 min 0 W/m 35,4 km/h (5 Bft) 93,62 %
09.01.2020 20:56 12,6 C 12,2 C 11,1 C 90 % 1010,4 hPa 0,0 l/m 0 min 0 min 0 W/m 19,3 km/h (3 Bft) 95,74 %
09.01.2020 20:58 12,6 C 11,7 C 11,1 C 90 % 1010,4 hPa 0,0 l/m 0 min 0 min 0 W/m 12,9 km/h (3 Bft) 94,55 %
09.01.2020 21:00 12,6 C 11,7 C 11,1 C 90 % 1010,4 hPa 0,0 l/m 0 min 0 min 0 W/m 16,1 km/h (3 Bft) 95,74 %
09.01.2020 21:02 12,6 C 11,7 C 11,1 C 90 % 1010,3 hPa 0,0 l/m 0 min 2 min 0 W/m 12,9 km/h (3 Bft) 94,74 %
09.01.2020 21:04 12,6 C 11,7 C 11,1 C 90 % 1010,3 hPa 0,0 l/m 0 min 2 min 0 W/m 22,5 km/h (4 Bft) 95,74 %
09.01.2020 21:06 12,6 C 11,7 C 10,6 C 90 % 1010,4 hPa 0,0 l/m 0 min 0 min 0 W/m 19,3 km/h (3 Bft) 95,65 %
09.01.2020 21:08 12,6 C 11,7 C 10,6 C 90 % 1010,3 hPa 0,0 l/m 0 min 0 min 0 W/m 22,5 km/h (4 Bft) 95,83 %
09.01.2020 21:10 12,6 C 11,7 C 10,6 C 90 % 1010,2 hPa 0,0 l/m 0 min 0 min 0 W/m 16,1 km/h (3 Bft) 97,87 %
09.01.2020 21:12 12,6 C 11,7 C 10,6 C 90 % 1010,2 hPa 0,0 l/m 0 min 0 min 0 W/m 19,3 km/h (3 Bft) 98,18 %
09.01.2020 21:14 12,6 C 11,7 C 10,6 C 90 % 1010,2 hPa 0,0 l/m 0 min 0 min 0 W/m 16,1 km/h (3 Bft) 97,37 %
09.01.2020 21:16 12,6 C 11,7 C 10,6 C 90 % 1010,2 hPa 0,0 l/m 0 min 0 min 0 W/m 19,3 km/h (3 Bft) 100,00 %
09.01.2020 21:18 12,6 C 11,7 C 10,6 C 90 % 1010,2 hPa 0,0 l/m 0 min 0 min 0 W/m 12,9 km/h (3 Bft) 97,83 %
09.01.2020 21:20 12,6 C 11,7 C 10,6 C 90 % 1010,2 hPa 0,0 l/m 0 min 0 min 0 W/m 16,1 km/h (3 Bft) 95,74 %
09.01.2020 21:22 12,5 C 11,7 C 10,6 C 90 % 1010,2 hPa 0,0 l/m 0 min 0 min 0 W/m 16,1 km/h (3 Bft) 95,74 %
09.01.2020 21:24 12,5 C 11,7 C 10,6 C 90 % 1010,1 hPa 0,0 l/m 0 min 0 min 0 W/m 16,1 km/h (3 Bft) 94,55 %
09.01.2020 21:26 12,5 C 11,1 C 10,6 C 90 % 1010,2 hPa 0,0 l/m 0 min 2 min 0 W/m 16,1 km/h (3 Bft) 92,11 %
09.01.2020 21:28 12,5 C 11,1 C 10,6 C 90 % 1010,1 hPa 0,0 l/m 0 min 2 min 0 W/m 12,9 km/h (3 Bft) 95,74 %
09.01.2020 21:30 12,5 C 10,6 C 10,6 C 90 % 1010,1 hPa 0,0 l/m 0 min 2 min 0 W/m 22,5 km/h (4 Bft) 95,74 %
09.01.2020 21:32 12,4 C 10,6 C 10,0 C 90 % 1010,1 hPa 0,0 l/m 0 min 2 min 0 W/m 9,7 km/h (2 Bft) 93,62 %
09.01.2020 21:34 12,4 C 10,6 C 10,0 C 90 % 1010,2 hPa 0,0 l/m 0 min 2 min 0 W/m 12,9 km/h (3 Bft) 97,87 %
09.01.2020 21:36 12,4 C 10,6 C 10,0 C 90 % 1010,1 hPa 0,0 l/m 0 min 0 min 0 W/m 16,1 km/h (3 Bft) 98,18 %
09.01.2020 21:38 12,4 C 10,6 C 10,0 C 91 % 1010,1 hPa 0,0 l/m 0 min 0 min 0 W/m 19,3 km/h (3 Bft) 94,74 %
09.01.2020 21:40 12,4 C 10,6 C 10,0 C 91 % 1010,2 hPa 0,0 l/m 0 min 2 min 0 W/m 12,9 km/h (3 Bft) 97,92 %
09.01.2020 21:42 12,3 C 10,6 C 10,0 C 91 % 1010,1 hPa 0,0 l/m 0 min 2 min 0 W/m 16,1 km/h (3 Bft) 95,65 %
09.01.2020 21:44 12,3 C 10,0 C 9,4 C 91 % 1010,1 hPa 0,0 l/m 0 min 2 min 0 W/m 12,9 km/h (3 Bft) 97,87 %
09.01.2020 21:46 12,3 C 10,0 C 9,4 C 91 % 1010,2 hPa 0,0 l/m 0 min 2 min 0 W/m 19,3 km/h (3 Bft) 94,55 %
09.01.2020 21:48 12,2 C 10,0 C 9,4 C 91 % 1010,2 hPa 0,2 l/m 0 min 2 min 0 W/m 22,5 km/h (4 Bft) 97,87 %
09.01.2020 21:50 12,2 C 10,0 C 9,4 C 92 % 1010,1 hPa 0,0 l/m 0 min 2 min 0 W/m 16,1 km/h (3 Bft) 97,37 %
09.01.2020 21:52 12,2 C 10,0 C 9,4 C 92 % 1010,2 hPa 0,0 l/m 0 min 2 min 0 W/m 22,5 km/h (4 Bft) 95,74 %
09.01.2020 21:54 12,2 C 10,0 C 9,4 C 92 % 1010,1 hPa 0,0 l/m 0 min 2 min 0 W/m 22,5 km/h (4 Bft) 97,87 %
09.01.2020 21:56 12,1 C 10,0 C 9,4 C 92 % 1010,1 hPa 0,2 l/m 0 min 2 min 0 W/m 19,3 km/h (3 Bft) 94,55 %
09.01.2020 21:58 12,1 C 10,0 C 9,4 C 93 % 1010,1 hPa 0,0 l/m 0 min 2 min 0 W/m 12,9 km/h (3 Bft) 100,00 %
09.01.2020 22:00 12,1 C 10,0 C 9,4 C 93 % 1010,1 hPa 0,2 l/m 0 min 2 min 0 W/m 6,4 km/h (2 Bft) 95,74 %
09.01.2020 22:02 12,0 C 10,0 C 9,4 C 93 % 1010,1 hPa 0,0 l/m 0 min 2 min 0 W/m 16,1 km/h (3 Bft) 97,92 %
09.01.2020 22:04 11,9 C 10,0 C 9,4 C 93 % 1010,1 hPa 0,2 l/m 0 min 2 min 0 W/m 19,3 km/h (3 Bft) 100,00 %
09.01.2020 22:06 11,9 C 10,0 C 9,4 C 93 % 1010,1 hPa 0,0 l/m 0 min 2 min 0 W/m 16,1 km/h (3 Bft) 100,00 %
09.01.2020 22:08 11,9 C 10,0 C 9,4 C 93 % 1010,1 hPa 0,0 l/m 0 min 2 min 0 W/m 19,3 km/h (3 Bft) 100,00 %
09.01.2020 22:10 11,8 C 10,0 C 9,4 C 94 % 1010,1 hPa 0,2 l/m 0 min 2 min 0 W/m 16,1 km/h (3 Bft) 100,00 %
09.01.2020 22:12 11,8 C 10,0 C 9,4 C 94 % 1010,0 hPa 0,0 l/m 0 min 2 min 0 W/m 16,1 km/h (3 Bft) 100,00 %
09.01.2020 22:14 11,7 C 10,0 C 9,4 C 94 % 1010,0 hPa 0,0 l/m 0 min 2 min 0 W/m 6,4 km/h (2 Bft) 100,00 %
09.01.2020 22:16 11,7 C 10,0 C 9,4 C 94 % 1010,0 hPa 0,0 l/m 0 min 0 min 0 W/m 16,1 km/h (3 Bft) 98,15 %
09.01.2020 22:18 11,7 C 10,0 C 9,4 C 94 % 1009,9 hPa 0,0 l/m 0 min 0 min 0 W/m 12,9 km/h (3 Bft) 100,00 %
09.01.2020 22:20 11,6 C 10,0 C 9,4 C 94 % 1009,9 hPa 0,0 l/m 0 min 0 min 0 W/m 16,1 km/h (3 Bft) 100,00 %
09.01.2020 22:22 11,6 C 10,0 C 9,4 C 95 % 1009,9 hPa 0,0 l/m 0 min 0 min 0 W/m 16,1 km/h (3 Bft) 100,00 %
09.01.2020 22:24 11,6 C 10,0 C 9,4 C 95 % 1009,8 hPa 0,0 l/m 0 min 0 min 0 W/m 12,9 km/h (3 Bft) 100,00 %
09.01.2020 22:26 11,5 C 10,0 C 9,4 C 95 % 1009,9 hPa 0,0 l/m 0 min 0 min 0 W/m 19,3 km/h (3 Bft) 100,00 %
09.01.2020 22:28 11,5 C 10,0 C 9,4 C 95 % 1009,9 hPa 0,0 l/m 0 min 0 min 0 W/m 19,3 km/h (3 Bft) 100,00 %
09.01.2020 22:30 11,4 C 10,0 C 9,4 C 95 % 1009,9 hPa 0,0 l/m 0 min 0 min 0 W/m 19,3 km/h (3 Bft) 100,00 %
09.01.2020 22:32 11,4 C 10,0 C 9,4 C 95 % 1009,9 hPa 0,0 l/m 0 min 0 min 0 W/m 25,7 km/h (4 Bft) 100,00 %
09.01.2020 22:34 11,4 C 10,0 C 9,4 C 95 % 1009,9 hPa 0,0 l/m 0 min 0 min 0 W/m 16,1 km/h (3 Bft) 97,87 %
09.01.2020 22:36 11,4 C 10,0 C 9,4 C 95 % 1009,9 hPa 0,0 l/m 0 min 0 min 0 W/m 19,3 km/h (3 Bft) 100,00 %
09.01.2020 22:38 11,3 C 10,0 C 9,4 C 95 % 1009,9 hPa 0,0 l/m 0 min 0 min 0 W/m 16,1 km/h (3 Bft) 100,00 %
09.01.2020 22:40 11,3 C 10,0 C 9,4 C 95 % 1009,9 hPa 0,0 l/m 0 min 0 min 0 W/m 12,9 km/h (3 Bft) 100,00 %
09.01.2020 22:42 11,3 C 10,0 C 9,4 C 96 % 1009,9 hPa 0,0 l/m 0 min 2 min 0 W/m 22,5 km/h (4 Bft) 97,87 %
09.01.2020 22:44 11,3 C 10,0 C 9,4 C 96 % 1009,9 hPa 0,0 l/m 0 min 2 min 0 W/m 29,0 km/h (5 Bft) 100,00 %
09.01.2020 22:46 11,3 C 10,0 C 9,4 C 96 % 1009,9 hPa 0,0 l/m 0 min 2 min 0 W/m 29,0 km/h (5 Bft) 100,00 %
09.01.2020 22:48 11,2 C 10,0 C 9,4 C 96 % 1010,0 hPa 0,0 l/m 0 min 2 min 0 W/m 19,3 km/h (3 Bft) 100,00 %
09.01.2020 22:50 11,2 C 10,0 C 9,4 C 96 % 1009,9 hPa 0,0 l/m 0 min 2 min 0 W/m 12,9 km/h (3 Bft) 100,00 %
09.01.2020 22:52 11,2 C 9,4 C 9,4 C 96 % 1009,8 hPa 0,0 l/m 0 min 2 min 0 W/m 19,3 km/h (3 Bft) 97,87 %
09.01.2020 22:54 11,2 C 9,4 C 9,4 C 96 % 1009,8 hPa 0,0 l/m 0 min 2 min 0 W/m 22,5 km/h (4 Bft) 100,00 %
09.01.2020 22:56 11,2 C 9,4 C 9,4 C 96 % 1009,8 hPa 0,0 l/m 0 min 2 min 0 W/m 19,3 km/h (3 Bft) 100,00 %
09.01.2020 22:58 11,2 C 9,4 C 9,4 C 96 % 1009,7 hPa 0,0 l/m 0 min 2 min 0 W/m 19,3 km/h (3 Bft) 100,00 %
09.01.2020 23:00 11,2 C 9,4 C 9,4 C 96 % 1009,7 hPa 0,0 l/m 0 min 2 min 0 W/m 25,7 km/h (4 Bft) 100,00 %
09.01.2020 23:02 11,2 C 9,4 C 9,4 C 96 % 1009,7 hPa 0,0 l/m 0 min 2 min 0 W/m 16,1 km/h (3 Bft) 97,87 %
09.01.2020 23:04 11,1 C 9,4 C 9,4 C 96 % 1009,7 hPa 0,0 l/m 0 min 2 min 0 W/m 16,1 km/h (3 Bft) 100,00 %
09.01.2020 23:06 11,1 C 9,4 C 9,4 C 96 % 1009,7 hPa 0,0 l/m 0 min 2 min 0 W/m 29,0 km/h (5 Bft) 97,87 %
09.01.2020 23:08 11,1 C 9,4 C 9,4 C 96 % 1009,7 hPa 0,0 l/m 0 min 2 min 0 W/m 25,7 km/h (4 Bft) 100,00 %
09.01.2020 23:10 11,1 C 9,4 C 9,4 C 96 % 1009,7 hPa 0,0 l/m 0 min 0 min 0 W/m 12,9 km/h (3 Bft) 100,00 %
09.01.2020 23:12 11,1 C 9,4 C 8,9 C 96 % 1009,6 hPa 0,0 l/m 0 min 2 min 0 W/m 16,1 km/h (3 Bft) 100,00 %
09.01.2020 23:14 11,1 C 9,4 C 8,9 C 96 % 1009,7 hPa 0,0 l/m 0 min 0 min 0 W/m 12,9 km/h (3 Bft) 100,00 %
09.01.2020 23:16 11,1 C 9,4 C 8,9 C 96 % 1009,8 hPa 0,0 l/m 0 min 0 min 0 W/m 16,1 km/h (3 Bft) 100,00 %
09.01.2020 23:18 11,1 C 9,4 C 8,9 C 96 % 1009,7 hPa 0,0 l/m 0 min 2 min 0 W/m 29,0 km/h (5 Bft) 100,00 %
09.01.2020 23:20 11,1 C 9,4 C 8,9 C 97 % 1009,8 hPa 0,0 l/m 0 min 2 min 0 W/m 19,3 km/h (3 Bft) 100,00 %
09.01.2020 23:22 11,1 C 9,4 C 8,9 C 97 % 1009,9 hPa 0,2 l/m 0 min 2 min 0 W/m 19,3 km/h (3 Bft) 97,87 %
09.01.2020 23:24 11,1 C 9,4 C 8,9 C 97 % 1009,8 hPa 0,0 l/m 0 min 2 min 0 W/m 16,1 km/h (3 Bft) 100,00 %
09.01.2020 23:26 11,0 C 9,4 C 8,9 C 97 % 1009,8 hPa 0,0 l/m 0 min 2 min 0 W/m 12,9 km/h (3 Bft) 100,00 %
09.01.2020 23:28 11,0 C 9,4 C 8,9 C 97 % 1009,8 hPa 0,0 l/m 0 min 2 min 0 W/m 12,9 km/h (3 Bft) 100,00 %
09.01.2020 23:30 11,0 C 9,4 C 8,9 C 97 % 1009,8 hPa 0,0 l/m 0 min 2 min 0 W/m 12,9 km/h (3 Bft) 100,00 %
09.01.2020 23:32 11,0 C 9,4 C 8,9 C 97 % 1009,9 hPa 0,2 l/m 0 min 2 min 0 W/m 12,9 km/h (3 Bft) 97,87 %
09.01.2020 23:34 10,9 C 9,4 C 8,9 C 97 % 1009,8 hPa 0,0 l/m 0 min 2 min 0 W/m 16,1 km/h (3 Bft) 95,74 %
09.01.2020 23:36 10,9 C 9,4 C 8,9 C 97 % 1009,9 hPa 0,0 l/m 0 min 2 min 0 W/m 16,1 km/h (3 Bft) 95,74 %
09.01.2020 23:38 10,9 C 9,4 C 8,9 C 97 % 1009,9 hPa 0,0 l/m 0 min 2 min 0 W/m 19,3 km/h (3 Bft) 95,65 %
09.01.2020 23:40 10,9 C 9,4 C 8,9 C 97 % 1009,9 hPa 0,0 l/m 0 min 2 min 0 W/m 12,9 km/h (3 Bft) 95,74 %
09.01.2020 23:42 10,9 C 9,4 C 8,9 C 97 % 1009,9 hPa 0,0 l/m 0 min 2 min 0 W/m 16,1 km/h (3 Bft) 95,74 %
09.01.2020 23:44 10,9 C 9,4 C 8,9 C 97 % 1009,9 hPa 0,2 l/m 0 min 2 min 0 W/m 16,1 km/h (3 Bft) 97,87 %
09.01.2020 23:46 10,9 C 9,4 C 8,9 C 97 % 1010,0 hPa 0,0 l/m 0 min 2 min 0 W/m 16,1 km/h (3 Bft) 93,62 %
09.01.2020 23:48 10,8 C 9,4 C 8,9 C 97 % 1010,0 hPa 0,0 l/m 0 min 2 min 0 W/m 19,3 km/h (3 Bft) 93,62 %
09.01.2020 23:50 10,8 C 9,4 C 8,9 C 97 % 1010,0 hPa 0,0 l/m 0 min 2 min 0 W/m 19,3 km/h (3 Bft) 95,65 %
09.01.2020 23:52 10,8 C 9,4 C 8,9 C 97 % 1010,1 hPa 0,0 l/m 0 min 2 min 0 W/m 12,9 km/h (3 Bft) 93,62 %
09.01.2020 23:54 10,8 C 9,4 C 8,9 C 97 % 1010,1 hPa 0,0 l/m 0 min 2 min 0 W/m 12,9 km/h (3 Bft) 95,74 %
09.01.2020 23:56 10,8 C 9,4 C 8,9 C 97 % 1010,2 hPa 0,0 l/m 0 min 2 min 0 W/m 16,1 km/h (3 Bft) 95,74 %
09.01.2020 23:58 10,8 C 9,4 C 8,9 C 97 % 1010,2 hPa 0,2 l/m 0 min 2 min 0 W/m 16,1 km/h (3 Bft) 95,74 %
_ Min-Zeit 04:30 04:48 03:26 20:06 23:12 - - - - 00:00 16:00
Minimum _ 9,6 C 8,3 C 8,3 C 90 % 1009,6 hPa - - - - 0,0 km/h (0 Bft) 46,67 %
_ Max-Zeit 16:34 14:32 15:12 00:00 00:02 00:04 00:00 00:08 11:50 12:46 00:58
Maximum _ 13,1 C 12,2 C 11,7 C 100 % 1022,9 hPa 0,2 l/m 0 min 4 min 57 W/m 48,3 km/h
S-SO (6 Bft)
100,00 %
Durchschnitt _ 11,3 C 10,3 C 9,7 C 97 % 1014,4 hPa #4,0 l/m #0 min. #8:04 h 24 W/m 16,5 km/h (3 Bft) 97,28 %
© 2020 W. Hausmann